Observation data for JA Ranch on 11/09/2019      Previous  Date       Current Mesonet Observations  Soil Data  Daily Summary Page  Observations in Plain Language
KPD3 090600Z 00004KT 01/01 A3026 RMK A01 T00060006  RH  100%=      5-min Rain = 0
KPD3 090601Z 01005KT 01/01 A3026 RMK A01 T00080007  RH  100%=      5-min Rain = 0
KPD3 090602Z 01004KT 01/01 A3026 RMK A01 T00090009  RH  100%=      5-min Rain = 0
KPD3 090603Z 36005KT 01/01 A3026 RMK A01 T00070007  RH  100%=      5-min Rain = 0
KPD3 090604Z 01003KT 01/01 A3026 RMK A01 T00050005  RH  100%=      5-min Rain = 0
KPD3 090605Z 02002KT 00/00 A3026 RMK A01 T00040004  RH  100%=      5-min Rain = 0
KPD3 090606Z 02002KT 00/00 A3026 RMK A01 T00040003  RH  100%=      5-min Rain = 0
KPD3 090607Z 02002KT 01/00 A3026 RMK A01 T00050004  RH  100%=      5-min Rain = 0
KPD3 090608Z 36002KT 01/01 A3026 RMK A01 T00060006  RH  100%=      5-min Rain = 0
KPD3 090609Z 02002KT 01/01 A3026 RMK A01 T00050005  RH  100%=      5-min Rain = 0
KPD3 090610Z 33002KT 01/01 A3026 RMK A01 T00050005  RH  100%=      5-min Rain = 0
KPD3 090611Z 00003KT 00/00 A3026 RMK A01 T00040003  RH  100%=      5-min Rain = 0
KPD3 090612Z 33003KT 00/00 A3026 RMK A01 T00030002  RH  100%=      5-min Rain = 0
KPD3 090613Z 33003KT 00/00 A3026 RMK A01 T00020002  RH  100%=      5-min Rain = 0
KPD3 090614Z 33003KT 00/00 A3026 RMK A01 T00010001  RH  100%=      5-min Rain = 0
KPD3 090615Z 35003KT 00/00 A3026 RMK A01 T00010001  RH  100%=      5-min Rain = 0
KPD3 090616Z 34002KT 00/00 A3026 RMK A01 T00010001  RH  100%=      5-min Rain = 0
KPD3 090617Z 35002KT 00/00 A3026 RMK A01 T00010001  RH  100%=      5-min Rain = 0
KPD3 090618Z 33003KT 00/00 A3026 RMK A01 T00020002  RH  100%=      5-min Rain = 0
KPD3 090619Z 34002KT 00/00 A3026 RMK A01 T00030002  RH  100%=      5-min Rain = 0
KPD3 090620Z 34002KT 00/00 A3026 RMK A01 T00020002  RH  100%=      5-min Rain = 0
KPD3 090621Z 35003KT 00/00 A3026 RMK A01 T00030003  RH  100%=      5-min Rain = 0
KPD3 090622Z 34002KT 00/00 A3026 RMK A01 T00040004  RH  100%=      5-min Rain = 0
KPD3 090623Z 36003KT 00/00 A3026 RMK A01 T00040004  RH  100%=      5-min Rain = 0
KPD3 090624Z 33003KT 01/01 A3026 RMK A01 T00060006  RH  100%=      5-min Rain = 0
KPD3 090625Z 00003KT 01/01 A3026 RMK A01 T00050005  RH  100%=      5-min Rain = 0
KPD3 090626Z 36003KT 01/01 A3026 RMK A01 T00050005  RH  100%=      5-min Rain = 0
KPD3 090627Z 34004KT 01/01 A3026 RMK A01 T00060006  RH  100%=      5-min Rain = 0
KPD3 090628Z 34003KT 00/00 A3026 RMK A01 T00040003  RH  100%=      5-min Rain = 0
KPD3 090629Z 36003KT 00/00 A3026 RMK A01 T00030002  RH  100%=      5-min Rain = 0
KPD3 090630Z 00003KT 00/00 A3026 RMK A01 T00020002  RH  100%=      5-min Rain = 0
KPD3 090631Z 01002KT 00/00 A3026 RMK A01 T00030003  RH  100%=      5-min Rain = 0
KPD3 090632Z 36002KT 00/00 A3026 RMK A01 T00040003  RH  100%=      5-min Rain = 0
KPD3 090633Z 35002KT 00/00 A3025 RMK A01 T00040004  RH  100%=      5-min Rain = 0
KPD3 090634Z 00002KT 01/00 A3025 RMK A01 T00050004  RH  100%=      5-min Rain = 0
KPD3 090635Z 31003KT 01/01 A3025 RMK A01 T00110011  RH  100%=      5-min Rain = 0
KPD3 090636Z 01002KT 01/01 A3025 RMK A01 T00130013  RH  100%=      5-min Rain = 0
KPD3 090637Z 02002KT 01/01 A3025 RMK A01 T00140014  RH  100%=      5-min Rain = 0
KPD3 090638Z 36002KT 02/02 A3025 RMK A01 T00160016  RH  100%=      5-min Rain = 0
KPD3 090639Z 01002KT 02/02 A3025 RMK A01 T00160016  RH  100%=      5-min Rain = 0
KPD3 090640Z 01002KT 02/02 A3025 RMK A01 T00160016  RH  100%=      5-min Rain = 0
KPD3 090641Z 00002KT 02/02 A3025 RMK A01 T00150015  RH  100%=      5-min Rain = 0
KPD3 090642Z 04001KT 01/01 A3025 RMK A01 T00130013  RH  100%=      5-min Rain = 0
KPD3 090643Z 03001KT 01/01 A3025 RMK A01 T00130013  RH  100%=      5-min Rain = 0
KPD3 090644Z 04000KT 01/01 A3025 RMK A01 T00120011  RH  100%=      5-min Rain = 0
KPD3 090645Z 04000KT 01/01 A3025 RMK A01 T00100009  RH  100%=      5-min Rain = 0
KPD3 090646Z 12000KT 01/01 A3025 RMK A01 T00080007  RH  100%=      5-min Rain = 0
KPD3 090647Z 12000KT 01/01 A3025 RMK A01 T00070006  RH  100%=      5-min Rain = 0
KPD3 090648Z 13001KT 01/01 A3025 RMK A01 T00060006  RH  100%=      5-min Rain = 0
KPD3 090649Z 00000KT 01/00 A3025 RMK A01 T00050004  RH  100%=      5-min Rain = 0
KPD3 090650Z 00000KT 00/00 A3025 RMK A01 T00040003  RH  100%=      5-min Rain = 0
KPD3 090651Z 00000KT 00/00 A3025 RMK A01 T00030003  RH  100%=      5-min Rain = 0
KPD3 090652Z 00000KT 01/01 A3025 RMK A01 T00050005  RH  100%=      5-min Rain = 0
KPD3 090653Z 00000KT 01/01 A3025 RMK A01 T00080008  RH  100%=      5-min Rain = 0
KPD3 090654Z 18000KT 01/01 A3025 RMK A01 T00100010  RH  100%=      5-min Rain = 0
KPD3 090655Z 18001KT 01/01 A3025 RMK A01 T00090009  RH  100%=      5-min Rain = 0
KPD3 090656Z 18002KT 01/01 A3025 RMK A01 T00090009  RH  100%=      5-min Rain = 0
KPD3 090657Z 17002KT 01/01 A3025 RMK A01 T00110011  RH  100%=      5-min Rain = 0
KPD3 090658Z 20002KT 01/01 A3024 RMK A01 T00090009  RH  100%=      5-min Rain = 0
KPD3 090659Z 18002KT 01/01 A3024 RMK A01 T00050005  RH  100%=      5-min Rain = 0
KPD3 090700Z 19001KT 00/00 A3025 RMK A01 T00030003  RH  100%=      5-min Rain = 0
KPD3 090701Z 20001KT 00/00 A3025 RMK A01 T00010001  RH  100%=      5-min Rain = 0
KPD3 090702Z 19000KT 00/00 A3025 RMK A01 T00010000  RH  100%=      5-min Rain = 0
KPD3 090703Z 00000KT 00/00 A3025 RMK A01 T00030002  RH  100%=      5-min Rain = 0
KPD3 090704Z 00000KT 00/00 A3025 RMK A01 T00040004  RH  100%=      5-min Rain = 0
KPD3 090705Z 00000KT 00/00 A3025 RMK A01 T00040004  RH  100%=      5-min Rain = 0
KPD3 090706Z 00000KT 00/00 A3025 RMK A01 T00040004  RH  100%=      5-min Rain = 0
KPD3 090707Z 00000KT 00/00 A3025 RMK A01 T00020002  RH  100%=      5-min Rain = 0
KPD3 090708Z 05001KT 00/00 A3025 RMK A01 T00020002  RH  100%=      5-min Rain = 0
KPD3 090709Z 05001KT 00/00 A3025 RMK A01 T00040004  RH  100%=      5-min Rain = 0
KPD3 090710Z 04002KT 00/00 A3025 RMK A01 T00030003  RH  100%=      5-min Rain = 0
KPD3 090711Z 04002KT 00/00 A3025 RMK A01 T00040004  RH  100%=      5-min Rain = 0
KPD3 090712Z 05003KT 01/01 A3025 RMK A01 T00060006  RH  100%=      5-min Rain = 0
KPD3 090713Z 06004KT 01/01 A3025 RMK A01 T00110011  RH  100%=      5-min Rain = 0
KPD3 090714Z 04003KT 01/01 A3025 RMK A01 T00100010  RH  100%=      5-min Rain = 0
KPD3 090715Z 03003KT 01/01 A3025 RMK A01 T00050005  RH  100%=      5-min Rain = 0
KPD3 090716Z 05003KT 01/01 A3024 RMK A01 T00060006  RH  100%=      5-min Rain = 0
KPD3 090717Z 05003KT 00/00 A3024 RMK A01 T00040004  RH  100%=      5-min Rain = 0
KPD3 090718Z 06003KT 00/00 A3024 RMK A01 T00020002  RH  100%=      5-min Rain = 0
KPD3 090719Z 06003KT 00/00 A3024 RMK A01 T00010001  RH  100%=      5-min Rain = 0
KPD3 090720Z 06002KT 00/00 A3024 RMK A01 T00010001  RH  100%=      5-min Rain = 0
KPD3 090721Z 07001KT 00/00 A3024 RMK A01 T00030003  RH  100%=      5-min Rain = 0
KPD3 090722Z 07000KT 01/01 A3024 RMK A01 T00060006  RH  100%=      5-min Rain = 0
KPD3 090723Z 00000KT 01/01 A3024 RMK A01 T00110011  RH  100%=      5-min Rain = 0
KPD3 090724Z 23001KT 01/01 A3024 RMK A01 T00130013  RH  100%=      5-min Rain = 0
KPD3 090725Z 24001KT 01/01 A3024 RMK A01 T00140014  RH  100%=      5-min Rain = 0
KPD3 090726Z 24000KT 01/01 A3024 RMK A01 T00120012  RH  100%=      5-min Rain = 0
KPD3 090727Z 30001KT 01/01 A3024 RMK A01 T00080008  RH  100%=      5-min Rain = 0
KPD3 090728Z 35001KT 01/01 A3024 RMK A01 T00080008  RH  100%=      5-min Rain = 0
KPD3 090729Z 01002KT 01/01 A3024 RMK A01 T00110010  RH  100%=      5-min Rain = 0
KPD3 090730Z 01002KT 01/01 A3024 RMK A01 T00120011  RH  100%=      5-min Rain = 0
KPD3 090731Z 01003KT 01/01 A3024 RMK A01 T00100009  RH  100%=      5-min Rain = 0
KPD3 090732Z 01003KT 01/01 A3024 RMK A01 T00070007  RH  100%=      5-min Rain = 0
KPD3 090733Z 01003KT 00/00 A3024 RMK A01 T00040004  RH  100%=      5-min Rain = 0
KPD3 090734Z 02003KT 00/00 A3024 RMK A01 T00010000  RH  100%=      5-min Rain = 0
KPD3 090735Z 02003KT M00/M00 A3024 RMK A01 T10011002  RH  100%=      5-min Rain = 0
KPD3 090736Z 03003KT M00/M00 A3024 RMK A01 T10041004  RH  100%=      5-min Rain = 0
KPD3 090737Z 01003KT M01/M01 A3024 RMK A01 T10051006  RH  100%=      5-min Rain = 0
KPD3 090738Z 03003KT M01/M01 A3024 RMK A01 T10061007  RH  100%=      5-min Rain = 0
KPD3 090739Z 03002KT M01/M01 A3024 RMK A01 T10071007  RH  100%=      5-min Rain = 0
KPD3 090740Z 03003KT M01/M01 A3024 RMK A01 T10071008  RH  100%=      5-min Rain = 0
KPD3 090741Z 01003KT M01/M01 A3024 RMK A01 T10071008  RH  100%=      5-min Rain = 0
KPD3 090742Z 03003KT M01/M01 A3024 RMK A01 T10071008  RH  100%=      5-min Rain = 0
KPD3 090743Z 03003KT M01/M01 A3024 RMK A01 T10051005  RH  100%=      5-min Rain = 0
KPD3 090744Z 01004KT M01/M01 A3024 RMK A01 T10051005  RH  100%=      5-min Rain = 0
KPD3 090745Z 01004KT M01/M01 A3024 RMK A01 T10061006  RH  100%=      5-min Rain = 0
KPD3 090746Z 02004KT M01/M01 A3024 RMK A01 T10051005  RH  100%=      5-min Rain = 0
KPD3 090747Z 02003KT M01/M01 A3024 RMK A01 T10051005  RH  100%=      5-min Rain = 0
KPD3 090748Z 01003KT M01/M01 A3024 RMK A01 T10051005  RH  100%=      5-min Rain = 0
KPD3 090749Z 02003KT M01/M01 A3024 RMK A01 T10051005  RH  100%=      5-min Rain = 0
KPD3 090750Z 02003KT M01/M01 A3024 RMK A01 T10061006  RH  100%=      5-min Rain = 0
KPD3 090751Z 02004KT M01/M01 A3024 RMK A01 T10051005  RH  100%=      5-min Rain = 0
KPD3 090752Z 02004KT M01/M01 A3024 RMK A01 T10051005  RH  100%=      5-min Rain = 0
KPD3 090753Z 00004KT M01/M01 A3024 RMK A01 T10051005  RH  100%=      5-min Rain = 0
KPD3 090754Z 01004KT M01/M01 A3023 RMK A01 T10051005  RH  100%=      5-min Rain = 0
KPD3 090755Z 01004KT M01/M01 A3023 RMK A01 T10051005  RH  100%=      5-min Rain = 0
KPD3 090756Z 01003KT M01/M01 A3023 RMK A01 T10051005  RH  100%=      5-min Rain = 0
KPD3 090757Z 00003KT M01/M01 A3023 RMK A01 T10051005  RH  100%=      5-min Rain = 0
KPD3 090758Z 00003KT M00/M00 A3023 RMK A01 T10041004  RH  100%=      5-min Rain = 0
KPD3 090759Z 00003KT M00/M00 A3023 RMK A01 T10031003  RH  100%=      5-min Rain = 0
KPD3 090800Z 01003KT M00/M00 A3023 RMK A01 T10021002  RH  100%=      5-min Rain = 0
KPD3 090801Z 02002KT M00/M00 A3023 RMK A01 T10011001  RH  100%=      5-min Rain = 0
KPD3 090802Z 00002KT 00/00 A3023 RMK A01 T00-000-1  RH  100%=      5-min Rain = 0
KPD3 090803Z 03002KT 00/00 A3023 RMK A01 T00-000-0  RH  100%=      5-min Rain = 0
KPD3 090804Z 04001KT 00/00 A3023 RMK A01 T00-000-0  RH  100%=      5-min Rain = 0
KPD3 090805Z 05001KT M00/M00 A3023 RMK A01 T10011001  RH  100%=      5-min Rain = 0
KPD3 090806Z 05001KT M00/M00 A3023 RMK A01 T10031003  RH  100%=      5-min Rain = 0
KPD3 090807Z 04001KT M00/M00 A3023 RMK A01 T10031003  RH  100%=      5-min Rain = 0
KPD3 090808Z 03001KT M00/M00 A3023 RMK A01 T10031003  RH  100%=      5-min Rain = 0
KPD3 090809Z 05001KT M00/M00 A3023 RMK A01 T10031003  RH  100%=      5-min Rain = 0
KPD3 090810Z 05002KT M00/M00 A3023 RMK A01 T10041004  RH  100%=      5-min Rain = 0
KPD3 090811Z 02002KT M01/M01 A3023 RMK A01 T10051005  RH  100%=      5-min Rain = 0
KPD3 090812Z 03002KT M01/M01 A3023 RMK A01 T10061006  RH  100%=      5-min Rain = 0
KPD3 090813Z 03002KT M01/M01 A3023 RMK A01 T10061006  RH  100%=      5-min Rain = 0
KPD3 090814Z 06001KT M01/M01 A3023 RMK A01 T10061006  RH  100%=      5-min Rain = 0
KPD3 090815Z 06000KT M01/M01 A3023 RMK A01 T10061006  RH  100%=      5-min Rain = 0
KPD3 090816Z 06000KT M01/M01 A3023 RMK A01 T10071007  RH  100%=      5-min Rain = 0
KPD3 090817Z 05001KT M01/M01 A3023 RMK A01 T10071007  RH  100%=      5-min Rain = 0
KPD3 090818Z 02001KT M01/M01 A3023 RMK A01 T10071007  RH  100%=      5-min Rain = 0
KPD3 090819Z 02001KT M01/M01 A3023 RMK A01 T10081008  RH  100%=      5-min Rain = 0
KPD3 090820Z 02000KT M01/M01 A3023 RMK A01 T10091009  RH  100%=      5-min Rain = 0
KPD3 090821Z 07001KT M01/M01 A3023 RMK A01 T10091009  RH  100%=      5-min Rain = 0
KPD3 090822Z 07001KT M01/M01 A3023 RMK A01 T10071008  RH  100%=      5-min Rain = 0
KPD3 090823Z 04001KT M01/M01 A3023 RMK A01 T10071007  RH  100%=      5-min Rain = 0
KPD3 090824Z 04002KT M01/M01 A3023 RMK A01 T10071008  RH  100%=      5-min Rain = 0
KPD3 090825Z 05002KT M01/M01 A3023 RMK A01 T10061006  RH  100%=      5-min Rain = 0
KPD3 090826Z 05003KT M01/M01 A3023 RMK A01 T10081008  RH  100%=      5-min Rain = 0
KPD3 090827Z 04002KT M01/M01 A3023 RMK A01 T10091009  RH  100%=      5-min Rain = 0
KPD3 090828Z 05002KT M01/M01 A3022 RMK A01 T10101011  RH  100%=      5-min Rain = 0
KPD3 090829Z 05002KT M01/M01 A3022 RMK A01 T10121012  RH  100%=      5-min Rain = 0
KPD3 090830Z 04001KT M01/M01 A3022 RMK A01 T10131013  RH  100%=      5-min Rain = 0
KPD3 090831Z 06001KT M01/M01 A3022 RMK A01 T10141014  RH  100%=      5-min Rain = 0
KPD3 090832Z 06001KT M01/M01 A3022 RMK A01 T10141014  RH  100%=      5-min Rain = 0
KPD3 090833Z 06001KT M01/M01 A3022 RMK A01 T10141014  RH  100%=      5-min Rain = 0
KPD3 090834Z 06000KT M01/M01 A3022 RMK A01 T10141014  RH  100%=      5-min Rain = 0
KPD3 090835Z 00000KT M01/M01 A3022 RMK A01 T10141014  RH  100%=      5-min Rain = 0
KPD3 090836Z 00000KT M02/M02 A3022 RMK A01 T10151015  RH  100%=      5-min Rain = 0
KPD3 090837Z 00000KT M01/M01 A3022 RMK A01 T10141014  RH  100%=      5-min Rain = 0
KPD3 090838Z 00000KT M01/M01 A3022 RMK A01 T10121012  RH  100%=      5-min Rain = 0
KPD3 090839Z 00000KT M01/M01 A3022 RMK A01 T10071008  RH  100%=      5-min Rain = 0
KPD3 090840Z 00000KT M01/M01 A3022 RMK A01 T10051005  RH  100%=      5-min Rain = 0
KPD3 090841Z 06000KT M01/M01 A3022 RMK A01 T10051005  RH  100%=      5-min Rain = 0
KPD3 090842Z 00000KT M01/M01 A3021 RMK A01 T10061006  RH  100%=      5-min Rain = 0
KPD3 090843Z 00000KT M00/M01 A3021 RMK A01 T10041005  RH  100%=      5-min Rain = 0
KPD3 090844Z 00000KT M01/M01 A3021 RMK A01 T10061006  RH  100%=      5-min Rain = 0
KPD3 090845Z 00000KT M01/M01 A3021 RMK A01 T10081008  RH  100%=      5-min Rain = 0
KPD3 090846Z 00000KT M01/M01 A3021 RMK A01 T10101010  RH  100%=      5-min Rain = 0
KPD3 090847Z 00000KT M01/M01 A3021 RMK A01 T10091009  RH  100%=      5-min Rain = 0
KPD3 090848Z 00000KT M01/M01 A3021 RMK A01 T10091009  RH  100%=      5-min Rain = 0
KPD3 090849Z 00000KT M01/M01 A3021 RMK A01 T10111011  RH  100%=      5-min Rain = 0
KPD3 090850Z 00000KT M01/M01 A3021 RMK A01 T10111011  RH  100%=      5-min Rain = 0
KPD3 090851Z 00000KT M01/M01 A3021 RMK A01 T10121012  RH  100%=      5-min Rain = 0
KPD3 090852Z 00000KT M01/M01 A3021 RMK A01 T10121012  RH  100%=      5-min Rain = 0
KPD3 090853Z 04000KT M01/M01 A3021 RMK A01 T10131013  RH  100%=      5-min Rain = 0
KPD3 090854Z 26001KT M01/M01 A3021 RMK A01 T10111011  RH  100%=      5-min Rain = 0
KPD3 090855Z 25002KT M01/M01 A3021 RMK A01 T10051005  RH  100%=      5-min Rain = 0
KPD3 090856Z 25002KT 00/00 A3021 RMK A01 T00000000  RH  100%=      5-min Rain = 0
KPD3 090857Z 24002KT M00/M00 A3021 RMK A01 T10011001  RH  100%=      5-min Rain = 0
KPD3 090858Z 25003KT M01/M01 A3021 RMK A01 T10051005  RH  100%=      5-min Rain = 0
KPD3 090859Z 25003KT M00/M00 A3021 RMK A01 T10021002  RH  100%=      5-min Rain = 0
KPD3 090900Z 26004KT 00/00 A3021 RMK A01 T00010001  RH  100%=      5-min Rain = 0
KPD3 090901Z 26004KT 00/00 A3021 RMK A01 T00010001  RH  100%=      5-min Rain = 0
KPD3 090902Z 26005KT 00/00 A3021 RMK A01 T00010001  RH  100%=      5-min Rain = 0
KPD3 090903Z 26005KT 00/00 A3021 RMK A01 T00040004  RH  100%=      5-min Rain = 0
KPD3 090904Z 26004KT 01/01 A3021 RMK A01 T00060006  RH  100%=      5-min Rain = 0
KPD3 090905Z 25003KT 01/01 A302 RMK A01 T00060006  RH  100%=      5-min Rain = 0
KPD3 090906Z 25003KT 01/01 A302 RMK A01 T00060005  RH  100%=      5-min Rain = 0
KPD3 090907Z 25004KT 01/01 A302 RMK A01 T00080008  RH  100%=      5-min Rain = 0
KPD3 090908Z 25004KT 01/01 A302 RMK A01 T00110011  RH  100%=      5-min Rain = 0
KPD3 090909Z 25002KT 01/01 A302 RMK A01 T00060006  RH  100%=      5-min Rain = 0
KPD3 090910Z 25002KT M00/M00 A3021 RMK A01 T10021003  RH  099%=      5-min Rain = 0
KPD3 090911Z 27002KT M01/M01 A3021 RMK A01 T10061007  RH  099%=      5-min Rain = 0
KPD3 090912Z 29001KT M01/M01 A3021 RMK A01 T10071008  RH  099%=      5-min Rain = 0
KPD3 090913Z 33001KT M00/M00 A3021 RMK A01 T10031003  RH  100%=      5-min Rain = 0
KPD3 090914Z 32001KT 00/00 A3021 RMK A01 T00020001  RH  100%=      5-min Rain = 0
KPD3 090915Z 31002KT 01/01 A3021 RMK A01 T00060006  RH  100%=      5-min Rain = 0
KPD3 090916Z 31002KT 01/01 A3021 RMK A01 T00090009  RH  100%=      5-min Rain = 0
KPD3 090917Z 30002KT 01/01 A3021 RMK A01 T00090009  RH  100%=      5-min Rain = 0
KPD3 090918Z 30002KT 01/01 A3021 RMK A01 T00090009  RH  100%=      5-min Rain = 0
KPD3 090919Z 30003KT 01/01 A3021 RMK A01 T00120012  RH  100%=      5-min Rain = 0
KPD3 090920Z 30003KT 01/01 A302 RMK A01 T00080008  RH  100%=      5-min Rain = 0
KPD3 090921Z 30003KT 01/01 A302 RMK A01 T00050005  RH  100%=      5-min Rain = 0
KPD3 090922Z 30003KT 00/00 A302 RMK A01 T00040004  RH  100%=      5-min Rain = 0
KPD3 090923Z 30004KT 00/00 A302 RMK A01 T00040004  RH  100%=      5-min Rain = 0
KPD3 090924Z 32004KT 00/00 A302 RMK A01 T00020002  RH  100%=      5-min Rain = 0
KPD3 090925Z 00004KT M00/M00 A3021 RMK A01 T10011001  RH  100%=      5-min Rain = 0
KPD3 090926Z 36004KT M01/M01 A3021 RMK A01 T10061007  RH  100%=      5-min Rain = 0
KPD3 090927Z 36004KT M01/M01 A3021 RMK A01 T10071008  RH  100%=      5-min Rain = 0
KPD3 090928Z 01004KT M01/M01 A3021 RMK A01 T10051005  RH  100%=      5-min Rain = 0
KPD3 090929Z 36003KT 00/00 A3021 RMK A01 T00000000  RH  100%=      5-min Rain = 0
KPD3 090930Z 01003KT 00/00 A3021 RMK A01 T00040004  RH  100%=      5-min Rain = 0
KPD3 090931Z 02005KT 01/01 A3021 RMK A01 T00060006  RH  100%=      5-min Rain = 0
KPD3 090932Z 02005KT 01/01 A3021 RMK A01 T00060006  RH  100%=      5-min Rain = 0
KPD3 090933Z 01004KT 01/01 A302 RMK A01 T00060006  RH  100%=      5-min Rain = 0
KPD3 090934Z 01004KT 01/01 A302 RMK A01 T00060006  RH  100%=      5-min Rain = 0
KPD3 090935Z 01004KT 01/01 A302 RMK A01 T00060006  RH  100%=      5-min Rain = 0
KPD3 090936Z 01004KT 01/01 A302 RMK A01 T00050005  RH  100%=      5-min Rain = 0
KPD3 090937Z 02004KT 01/00 A302 RMK A01 T00050004  RH  100%=      5-min Rain = 0
KPD3 090938Z 02004KT 01/01 A302 RMK A01 T00050005  RH  100%=      5-min Rain = 0
KPD3 090939Z 02004KT 00/00 A302 RMK A01 T00040004  RH  100%=      5-min Rain = 0
KPD3 090940Z 02004KT 00/00 A302 RMK A01 T00040003  RH  100%=      5-min Rain = 0
KPD3 090941Z 02003KT 00/00 A302 RMK A01 T00030003  RH  100%=      5-min Rain = 0
KPD3 090942Z 02002KT 00/00 A302 RMK A01 T00030003  RH  100%=      5-min Rain = 0
KPD3 090943Z 02001KT 00/00 A302 RMK A01 T00010001  RH  100%=      5-min Rain = 0
KPD3 090944Z 03002KT 00/00 A302 RMK A01 T00-000-1  RH  100%=      5-min Rain = 0
KPD3 090945Z 03002KT M00/M00 A302 RMK A01 T10031003  RH  100%=      5-min Rain = 0
KPD3 090946Z 02003KT M00/M00 A302 RMK A01 T10031004  RH  100%=      5-min Rain = 0
KPD3 090947Z 01004KT M01/M01 A302 RMK A01 T10051005  RH  100%=      5-min Rain = 0
KPD3 090948Z 01003KT M01/M01 A302 RMK A01 T10051005  RH  100%=      5-min Rain = 0
KPD3 090949Z 01003KT M01/M01 A302 RMK A01 T10051005  RH  100%=      5-min Rain = 0
KPD3 090950Z 00004KT M01/M01 A302 RMK A01 T10051005  RH  100%=      5-min Rain = 0
KPD3 090951Z 01004KT M01/M01 A302 RMK A01 T10061006  RH  100%=      5-min Rain = 0
KPD3 090952Z 01003KT M01/M01 A302 RMK A01 T10061006  RH  100%=      5-min Rain = 0
KPD3 090953Z 01003KT M01/M01 A302 RMK A01 T10051006  RH  100%=      5-min Rain = 0
KPD3 090954Z 36003KT M01/M01 A302 RMK A01 T10051006  RH  100%=      5-min Rain = 0
KPD3 090955Z 01003KT M01/M01 A302 RMK A01 T10051005  RH  100%=      5-min Rain = 0
KPD3 090956Z 00002KT M00/M00 A302 RMK A01 T10031003  RH  100%=      5-min Rain = 0
KPD3 090957Z 00002KT M00/M00 A302 RMK A01 T10011001  RH  100%=      5-min Rain = 0
KPD3 090958Z 01003KT 00/00 A302 RMK A01 T00-000-1  RH  100%=      5-min Rain = 0
KPD3 090959Z 00003KT M00/M00 A302 RMK A01 T10011001  RH  100%=      5-min Rain = 0
KPD3 091000Z 00003KT 00/00 A302 RMK A01 T00-000-0  RH  100%=      5-min Rain = 0
KPD3 091001Z 36003KT 00/00 A302 RMK A01 T00010001  RH  100%=      5-min Rain = 0
KPD3 091002Z 35003KT 00/00 A302 RMK A01 T00030002  RH  100%=      5-min Rain = 0
KPD3 091003Z 36004KT 00/00 A302 RMK A01 T00030003  RH  100%=      5-min Rain = 0
KPD3 091004Z 00004KT 00/00 A302 RMK A01 T00040004  RH  100%=      5-min Rain = 0
KPD3 091005Z 01003KT 00/00 A302 RMK A01 T00040004  RH  100%=      5-min Rain = 0
KPD3 091006Z 01003KT 00/00 A302 RMK A01 T00030003  RH  100%=      5-min Rain = 0
KPD3 091007Z 01003KT 00/00 A3019 RMK A01 T00030003  RH  100%=      5-min Rain = 0
KPD3 091008Z 01003KT 00/00 A3019 RMK A01 T00020002  RH  100%=      5-min Rain = 0
KPD3 091009Z 02002KT 00/00 A3019 RMK A01 T00020001  RH  100%=      5-min Rain = 0
KPD3 091010Z 35003KT 00/00 A3019 RMK A01 T00010001  RH  100%=      5-min Rain = 0
KPD3 091011Z 35003KT 00/00 A3019 RMK A01 T00-000-0  RH  100%=      5-min Rain = 0
KPD3 091012Z 34002KT 00/00 A3019 RMK A01 T00-000-0  RH  100%=      5-min Rain = 0
KPD3 091013Z 33003KT 00/00 A302 RMK A01 T00010001  RH  100%=      5-min Rain = 0
KPD3 091014Z 33002KT 00/00 A302 RMK A01 T00010001  RH  100%=      5-min Rain = 0
KPD3 091015Z 35001KT 00/00 A302 RMK A01 T00020002  RH  100%=      5-min Rain = 0
KPD3 091016Z 31002KT 00/00 A302 RMK A01 T00030003  RH  100%=      5-min Rain = 0
KPD3 091017Z 31001KT 00/00 A302 RMK A01 T00040004  RH  100%=      5-min Rain = 0
KPD3 091018Z 30001KT 00/00 A302 RMK A01 T00040004  RH  100%=      5-min Rain = 0
KPD3 091019Z 29001KT 00/00 A3019 RMK A01 T00040004  RH  100%=      5-min Rain = 0
KPD3 091020Z 30001KT 01/01 A3019 RMK A01 T00060006  RH  100%=      5-min Rain = 0
KPD3 091021Z 32001KT 01/01 A3019 RMK A01 T00090009  RH  100%=      5-min Rain = 0
KPD3 091022Z 32000KT 01/01 A3019 RMK A01 T00110010  RH  100%=      5-min Rain = 0
KPD3 091023Z 00000KT 02/02 A3019 RMK A01 T00150015  RH  100%=      5-min Rain = 0
KPD3 091024Z 24001KT 02/02 A3019 RMK A01 T00200019  RH  100%=      5-min Rain = 0
KPD3 091025Z 25001KT 02/02 A3019 RMK A01 T00180018  RH  100%=      5-min Rain = 0
KPD3 091026Z 25001KT 01/01 A3019 RMK A01 T00120012  RH  100%=      5-min Rain = 0
KPD3 091027Z 24001KT 01/01 A3019 RMK A01 T00080008  RH  100%=      5-min Rain = 0
KPD3 091028Z 24002KT 01/01 A3019 RMK A01 T00060006  RH  100%=      5-min Rain = 0
KPD3 091029Z 23002KT 01/01 A3019 RMK A01 T00050005  RH  100%=      5-min Rain = 0
KPD3 091030Z 23003KT 01/01 A3019 RMK A01 T00060005  RH  100%=      5-min Rain = 0
KPD3 091031Z 24003KT 01/01 A3019 RMK A01 T00050005  RH  100%=      5-min Rain = 0
KPD3 091032Z 25003KT 01/01 A3019 RMK A01 T00050005  RH  100%=      5-min Rain = 0
KPD3 091033Z 25003KT 01/01 A3019 RMK A01 T00050005  RH  100%=      5-min Rain = 0
KPD3 091034Z 26003KT 01/01 A3019 RMK A01 T00050005  RH  100%=      5-min Rain = 0
KPD3 091035Z 26003KT 01/01 A3019 RMK A01 T00060006  RH  100%=      5-min Rain = 0
KPD3 091036Z 24002KT 01/01 A3019 RMK A01 T00080008  RH  100%=      5-min Rain = 0
KPD3 091037Z 23002KT 01/01 A3019 RMK A01 T00100009  RH  100%=      5-min Rain = 0
KPD3 091038Z 23003KT 01/01 A3019 RMK A01 T00100010  RH  100%=      5-min Rain = 0
KPD3 091039Z 23003KT 01/01 A3019 RMK A01 T00100010  RH  100%=      5-min Rain = 0
KPD3 091040Z 23002KT 01/01 A3019 RMK A01 T00110011  RH  100%=      5-min Rain = 0
KPD3 091041Z 24002KT 02/02 A3019 RMK A01 T00150015  RH  100%=      5-min Rain = 0
KPD3 091042Z 24001KT 02/02 A3019 RMK A01 T00170017  RH  100%=      5-min Rain = 0
KPD3 091043Z 25001KT 02/02 A3019 RMK A01 T00150015  RH  100%=      5-min Rain = 0
KPD3 091044Z 25000KT 01/01 A3019 RMK A01 T00090008  RH  100%=      5-min Rain = 0
KPD3 091045Z 25000KT 01/01 A3019 RMK A01 T00080008  RH  100%=      5-min Rain = 0
KPD3 091046Z 25000KT 01/01 A3019 RMK A01 T00110011  RH  100%=      5-min Rain = 0
KPD3 091047Z 25001KT 01/01 A3019 RMK A01 T00130012  RH  100%=      5-min Rain = 0
KPD3 091048Z 00000KT 02/02 A3019 RMK A01 T00150015  RH  100%=      5-min Rain = 0
KPD3 091049Z 00000KT 01/01 A3019 RMK A01 T00140014  RH  100%=      5-min Rain = 0
KPD3 091050Z 25000KT 01/01 A3019 RMK A01 T00110011  RH  100%=      5-min Rain = 0
KPD3 091051Z 25000KT 01/01 A3019 RMK A01 T00070007  RH  100%=      5-min Rain = 0
KPD3 091052Z 00000KT 01/00 A3019 RMK A01 T00050004  RH  100%=      5-min Rain = 0
KPD3 091053Z 00000KT 00/00 A3019 RMK A01 T00020002  RH  100%=      5-min Rain = 0
KPD3 091054Z 00000KT 00/00 A3019 RMK A01 T00000000  RH  100%=      5-min Rain = 0
KPD3 091055Z 25000KT 00/00 A3019 RMK A01 T00-000-1  RH  100%=      5-min Rain = 0
KPD3 091056Z 25000KT M00/M00 A3019 RMK A01 T10021002  RH  100%=      5-min Rain = 0
KPD3 091057Z 25000KT M00/M00 A3019 RMK A01 T10041004  RH  100%=      5-min Rain = 0
KPD3 091058Z 24001KT M00/M00 A3019 RMK A01 T10041004  RH  100%=      5-min Rain = 0
KPD3 091059Z 23001KT 00/00 A3019 RMK A01 T00010001  RH  100%=      5-min Rain = 0
KPD3 091100Z 24002KT 01/01 A3019 RMK A01 T00060006  RH  100%=      5-min Rain = 0
KPD3 091101Z 25002KT 01/01 A3019 RMK A01 T00090009  RH  100%=      5-min Rain = 0
KPD3 091102Z 26003KT 01/01 A3019 RMK A01 T00060006  RH  100%=      5-min Rain = 0
KPD3 091103Z 26001KT 00/00 A3019 RMK A01 T00030003  RH  100%=      5-min Rain = 0
KPD3 091104Z 26001KT 00/00 A3019 RMK A01 T00010001  RH  100%=      5-min Rain = 0
KPD3 091105Z 26002KT 00/00 A3019 RMK A01 T00-000-0  RH  100%=      5-min Rain = 0
KPD3 091106Z 26002KT M00/M00 A3019 RMK A01 T10021002  RH  100%=      5-min Rain = 0
KPD3 091107Z 27002KT M00/M00 A3019 RMK A01 T10031003  RH  100%=      5-min Rain = 0
KPD3 091108Z 27002KT M01/M01 A3019 RMK A01 T10061006  RH  100%=      5-min Rain = 0
KPD3 091109Z 26003KT M01/M01 A3019 RMK A01 T10061006  RH  100%=      5-min Rain = 0
KPD3 091110Z 26003KT M01/M01 A3019 RMK A01 T10051005  RH  100%=      5-min Rain = 0
KPD3 091111Z 26003KT M00/M00 A3019 RMK A01 T10021002  RH  100%=      5-min Rain = 0
KPD3 091112Z 26004KT M00/M00 A3019 RMK A01 T10011001  RH  100%=      5-min Rain = 0
KPD3 091113Z 26004KT M00/M00 A3019 RMK A01 T10011001  RH  100%=      5-min Rain = 0
KPD3 091114Z 26004KT M00/M00 A3019 RMK A01 T10011001  RH  100%=      5-min Rain = 0
KPD3 091115Z 26004KT M00/M00 A3019 RMK A01 T10011001  RH  100%=      5-min Rain = 0
KPD3 091116Z 26004KT M00/M00 A3019 RMK A01 T10011001  RH  100%=      5-min Rain = 0
KPD3 091117Z 26005KT M00/M00 A3019 RMK A01 T10011001  RH  100%=      5-min Rain = 0
KPD3 091118Z 27004KT M00/M00 A3019 RMK A01 T10011002  RH  100%=      5-min Rain = 0
KPD3 091119Z 27004KT M00/M00 A3019 RMK A01 T10021002  RH  100%=      5-min Rain = 0
KPD3 091120Z 27004KT M00/M00 A3019 RMK A01 T10011001  RH  100%=      5-min Rain = 0
KPD3 091121Z 27004KT 00/00 A3019 RMK A01 T00010000  RH  100%=      5-min Rain = 0
KPD3 091122Z 27004KT 00/00 A3019 RMK A01 T00010001  RH  100%=      5-min Rain = 0
KPD3 091123Z 28004KT 00/00 A3019 RMK A01 T00020001  RH  100%=      5-min Rain = 0
KPD3 091124Z 28004KT 00/00 A3019 RMK A01 T00020002  RH  100%=      5-min Rain = 0
KPD3 091125Z 28004KT 00/00 A3019 RMK A01 T00010001  RH  100%=      5-min Rain = 0
KPD3 091126Z 28004KT 00/00 A3019 RMK A01 T00-000-1  RH  100%=      5-min Rain = 0
KPD3 091127Z 28004KT 00/00 A3019 RMK A01 T00010001  RH  100%=      5-min Rain = 0
KPD3 091128Z 28004KT 00/00 A3019 RMK A01 T00030002  RH  100%=      5-min Rain = 0
KPD3 091129Z 28004KT 01/00 A3019 RMK A01 T00050004  RH  100%=      5-min Rain = 0
KPD3 091130Z 28005KT 01/01 A3019 RMK A01 T00050005  RH  100%=      5-min Rain = 0
KPD3 091131Z 28005KT 01/01 A3019 RMK A01 T00060006  RH  100%=      5-min Rain = 0
KPD3 091132Z 28005KT 01/01 A3019 RMK A01 T00070007  RH  100%=      5-min Rain = 0
KPD3 091133Z 28005KT 01/01 A3019 RMK A01 T00050005  RH  100%=      5-min Rain = 0
KPD3 091134Z 28005KT 00/00 A3019 RMK A01 T00030003  RH  100%=      5-min Rain = 0
KPD3 091135Z 28004KT 00/00 A3019 RMK A01 T00020002  RH  100%=      5-min Rain = 0
KPD3 091136Z 29004KT 00/00 A3019 RMK A01 T00030003  RH  100%=      5-min Rain = 0
KPD3 091137Z 29004KT 01/01 A3019 RMK A01 T00060006  RH  100%=      5-min Rain = 0
KPD3 091138Z 29003KT 01/01 A3019 RMK A01 T00060006  RH  100%=      5-min Rain = 0
KPD3 091139Z 30003KT 01/01 A3019 RMK A01 T00060006  RH  100%=      5-min Rain = 0
KPD3 091140Z 29003KT 01/01 A3019 RMK A01 T00070007  RH  100%=      5-min Rain = 0
KPD3 091141Z 29003KT 01/01 A3019 RMK A01 T00090009  RH  100%=      5-min Rain = 0
KPD3 091142Z 28003KT 01/01 A3019 RMK A01 T00120012  RH  100%=      5-min Rain = 0
KPD3 091143Z 28003KT 02/02 A3019 RMK A01 T00200020  RH  100%=      5-min Rain = 0
KPD3 091144Z 28003KT 03/03 A3019 RMK A01 T00270027  RH  100%=      5-min Rain = 0
KPD3 091145Z 28003KT 03/03 A3019 RMK A01 T00300030  RH  100%=      5-min Rain = 0
KPD3 091146Z 28003KT 03/03 A3019 RMK A01 T00290029  RH  100%=      5-min Rain = 0
KPD3 091147Z 27003KT 03/03 A3019 RMK A01 T00260026  RH  100%=      5-min Rain = 0
KPD3 091148Z 28003KT 02/02 A3019 RMK A01 T00230023  RH  100%=      5-min Rain = 0
KPD3 091149Z 28003KT 02/02 A3019 RMK A01 T00170016  RH  099%=      5-min Rain = 0
KPD3 091150Z 28003KT 01/01 A3019 RMK A01 T00100009  RH  099%=      5-min Rain = 0
KPD3 091151Z 28003KT 01/01 A302 RMK A01 T00070005  RH  099%=      5-min Rain = 0
KPD3 091152Z 28003KT 01/00 A302 RMK A01 T00050004  RH  099%=      5-min Rain = 0
KPD3 091153Z 29003KT 01/00 A302 RMK A01 T00050004  RH  099%=      5-min Rain = 0
KPD3 091154Z 28002KT 01/00 A302 RMK A01 T00050004  RH  099%=      5-min Rain = 0
KPD3 091155Z 30002KT 01/00 A302 RMK A01 T00050004  RH  099%=      5-min Rain = 0
KPD3 091156Z 29002KT 00/00 A302 RMK A01 T00030002  RH  099%=      5-min Rain = 0
KPD3 091157Z 29001KT M00/M00 A3019 RMK A01 T10021004  RH  099%=      5-min Rain = 0
KPD3 091158Z 30002KT M01/M01 A3019 RMK A01 T10051008  RH  098%=      5-min Rain = 0
KPD3 091159Z 31002KT M00/M01 A3019 RMK A01 T10041006  RH  099%=      5-min Rain = 0
KPD3 091200Z 33002KT 00/00 A3019 RMK A01 T00020001  RH  099%=      5-min Rain = 0
KPD3 091201Z 33002KT 01/01 A3019 RMK A01 T00090008  RH  100%=      5-min Rain = 0
KPD3 091202Z 33002KT 01/01 A302 RMK A01 T00080007  RH  099%=      5-min Rain = 0
KPD3 091203Z 34001KT 00/00 A302 RMK A01 T00040003  RH  099%=      5-min Rain = 0
KPD3 091204Z 35001KT 00/M00 A302 RMK A01 T00011001  RH  099%=      5-min Rain = 0
KPD3 091205Z 33001KT M00/M00 A302 RMK A01 T10011003  RH  099%=      5-min Rain = 0
KPD3 091206Z 34001KT M00/M00 A302 RMK A01 T10011003  RH  099%=      5-min Rain = 0
KPD3 091207Z 36001KT M00/M00 A302 RMK A01 T10011003  RH  099%=      5-min Rain = 0
KPD3 091208Z 35002KT M00/M01 A302 RMK A01 T10031005  RH  099%=      5-min Rain = 0
KPD3 091209Z 36002KT M01/M01 A302 RMK A01 T10061008  RH  099%=      5-min Rain = 0
KPD3 091210Z 00002KT M01/M01 A302 RMK A01 T10061008  RH  099%=      5-min Rain = 0
KPD3 091211Z 01003KT M00/M01 A302 RMK A01 T10041005  RH  099%=      5-min Rain = 0
KPD3 091212Z 01004KT M00/M01 A302 RMK A01 T10041006  RH  099%=      5-min Rain = 0
KPD3 091213Z 01004KT M00/M00 A302 RMK A01 T10021004  RH  099%=      5-min Rain = 0
KPD3 091214Z 00004KT M00/M00 A302 RMK A01 T10021004  RH  099%=      5-min Rain = 0
KPD3 091215Z 35003KT M00/M01 A302 RMK A01 T10031005  RH  099%=      5-min Rain = 0
KPD3 091216Z 36003KT M00/M01 A302 RMK A01 T10031005  RH  099%=      5-min Rain = 0
KPD3 091217Z 35003KT M00/M00 A302 RMK A01 T10021003  RH  099%=      5-min Rain = 0
KPD3 091218Z 35003KT M00/M00 A302 RMK A01 T10011002  RH  099%=      5-min Rain = 0
KPD3 091219Z 34003KT 00/00 A302 RMK A01 T000000-1  RH  099%=      5-min Rain = 0
KPD3 091220Z 34003KT 00/00 A302 RMK A01 T00020001  RH  099%=      5-min Rain = 0
KPD3 091221Z 34003KT 01/00 A302 RMK A01 T00050004  RH  099%=      5-min Rain = 0
KPD3 091222Z 35002KT 01/01 A302 RMK A01 T00070006  RH  099%=      5-min Rain = 0
KPD3 091223Z 03002KT 01/01 A302 RMK A01 T00080007  RH  099%=      5-min Rain = 0
KPD3 091224Z 04003KT 01/01 A302 RMK A01 T00080007  RH  099%=      5-min Rain = 0
KPD3 091225Z 04003KT 01/01 A302 RMK A01 T00100009  RH  099%=      5-min Rain = 0
KPD3 091226Z 05003KT 01/01 A302 RMK A01 T00120012  RH  099%=      5-min Rain = 0
KPD3 091227Z 04002KT 01/01 A302 RMK A01 T00140013  RH  100%=      5-min Rain = 0
KPD3 091228Z 04002KT 02/02 A302 RMK A01 T00160015  RH  100%=      5-min Rain = 0
KPD3 091229Z 05002KT 02/02 A302 RMK A01 T00160016  RH  099%=      5-min Rain = 0
KPD3 091230Z 05002KT 02/02 A302 RMK A01 T00160015  RH  099%=      5-min Rain = 0
KPD3 091231Z 05001KT 02/02 A302 RMK A01 T00160015  RH  099%=      5-min Rain = 0
KPD3 091232Z 05001KT 02/02 A302 RMK A01 T00170016  RH  099%=      5-min Rain = 0
KPD3 091233Z 05001KT 02/02 A302 RMK A01 T00170016  RH  099%=      5-min Rain = 0
KPD3 091234Z 04001KT 02/02 A302 RMK A01 T00170016  RH  099%=      5-min Rain = 0
KPD3 091235Z 04001KT 02/02 A302 RMK A01 T00180017  RH  099%=      5-min Rain = 0
KPD3 091236Z 04000KT 02/01 A302 RMK A01 T00150013  RH  099%=      5-min Rain = 0
KPD3 091237Z 04000KT 01/01 A302 RMK A01 T00140012  RH  099%=      5-min Rain = 0
KPD3 091238Z 04000KT 01/01 A302 RMK A01 T00120011  RH  099%=      5-min Rain = 0
KPD3 091239Z 04001KT 01/01 A302 RMK A01 T00080006  RH  098%=      5-min Rain = 0
KPD3 091240Z 04001KT 00/00 A302 RMK A01 T000400-0  RH  098%=      5-min Rain = 0
KPD3 091241Z 04000KT 01/00 A302 RMK A01 T00050003  RH  098%=      5-min Rain = 0
KPD3 091242Z 04000KT 01/01 A302 RMK A01 T00120010  RH  099%=      5-min Rain = 0
KPD3 091243Z 04001KT 01/01 A302 RMK A01 T00130012  RH  099%=      5-min Rain = 0
KPD3 091244Z 04001KT 02/01 A302 RMK A01 T00150014  RH  099%=      5-min Rain = 0
KPD3 091245Z 04001KT 02/02 A302 RMK A01 T00170016  RH  099%=      5-min Rain = 0
KPD3 091246Z 04000KT 02/02 A302 RMK A01 T00200019  RH  099%=      5-min Rain = 0
KPD3 091247Z 00000KT 02/02 A302 RMK A01 T00230022  RH  099%=      5-min Rain = 0
KPD3 091248Z 00000KT 02/02 A3021 RMK A01 T00200018  RH  099%=      5-min Rain = 0
KPD3 091249Z 00000KT 01/01 A3021 RMK A01 T00090006  RH  098%=      5-min Rain = 0
KPD3 091250Z 00000KT 00/M00 A3021 RMK A01 T00011004  RH  096%=      5-min Rain = 0
KPD3 091251Z 00000KT M00/M01 A3021 RMK A01 T10031009  RH  096%=      5-min Rain = 0
KPD3 091252Z 04000KT M01/M01 A3021 RMK A01 T10061012  RH  096%=      5-min Rain = 0
KPD3 091253Z 20001KT M01/M02 A3021 RMK A01 T10111018  RH  095%=      5-min Rain = 0
KPD3 091254Z 21002KT M01/M02 A3021 RMK A01 T10111016  RH  096%=      5-min Rain = 0
KPD3 091255Z 20002KT M01/M01 A3021 RMK A01 T10091013  RH  097%=      5-min Rain = 0
KPD3 091256Z 22002KT M01/M01 A3021 RMK A01 T10061009  RH  098%=      5-min Rain = 0
KPD3 091257Z 22003KT M00/M00 A3021 RMK A01 T10011003  RH  099%=      5-min Rain = 0
KPD3 091258Z 23003KT 00/00 A3021 RMK A01 T00040003  RH  099%=      5-min Rain = 0
KPD3 091259Z 24004KT 01/01 A3021 RMK A01 T00120011  RH  099%=      5-min Rain = 0
KPD3 091300Z 24004KT 01/01 A302 RMK A01 T00140013  RH  099%=      5-min Rain = 0
KPD3 091301Z 24004KT 01/01 A302 RMK A01 T00140012  RH  099%=      5-min Rain = 0
KPD3 091302Z 25005KT 01/01 A302 RMK A01 T00130011  RH  099%=      5-min Rain = 0
KPD3 091303Z 24005KT 01/01 A302 RMK A01 T00110009  RH  099%=      5-min Rain = 0
KPD3 091304Z 24005KT 01/01 A302 RMK A01 T00110008  RH  098%=      5-min Rain = 0
KPD3 091305Z 24006KT 01/01 A302 RMK A01 T00100007  RH  098%=      5-min Rain = 0
KPD3 091306Z 25007KT 01/01 A302 RMK A01 T00090005  RH  097%=      5-min Rain = 0
KPD3 091307Z 25008KT 01/00 A302 RMK A01 T00080003  RH  097%=      5-min Rain = 0
KPD3 091308Z 25008KT 01/00 A302 RMK A01 T00080003  RH  097%=      5-min Rain = 0
KPD3 091309Z 25008KT 01/01 A302 RMK A01 T00090005  RH  097%=      5-min Rain = 0
KPD3 091310Z 25007KT 01/01 A302 RMK A01 T00110008  RH  097%=      5-min Rain = 0
KPD3 091311Z 25007KT 01/01 A302 RMK A01 T00120009  RH  098%=      5-min Rain = 0
KPD3 091312Z 25007KT 01/01 A302 RMK A01 T00120009  RH  097%=      5-min Rain = 0
KPD3 091313Z 25007KT 01/01 A302 RMK A01 T00120007  RH  097%=      5-min Rain = 0
KPD3 091314Z 25007KT 01/01 A302 RMK A01 T00110007  RH  097%=      5-min Rain = 0
KPD3 091315Z 25007KT 01/01 A302 RMK A01 T00110006  RH  096%=      5-min Rain = 0
KPD3 091316Z 25007KT 01/01 A302 RMK A01 T00100005  RH  096%=      5-min Rain = 0
KPD3 091317Z 25006KT 01/01 A302 RMK A01 T00110006  RH  096%=      5-min Rain = 0
KPD3 091318Z 25006KT 01/01 A302 RMK A01 T00100005  RH  096%=      5-min Rain = 0
KPD3 091319Z 26006KT 01/00 A302 RMK A01 T00100004  RH  096%=      5-min Rain = 0
KPD3 091320Z 26006KT 01/00 A302 RMK A01 T00090003  RH  096%=      5-min Rain = 0
KPD3 091321Z 26006KT 01/00 A302 RMK A01 T00090003  RH  096%=      5-min Rain = 0
KPD3 091322Z 25006KT 01/00 A302 RMK A01 T00090003  RH  096%=      5-min Rain = 0
KPD3 091323Z 26007KT 01/00 A302 RMK A01 T00090003  RH  096%=      5-min Rain = 0
KPD3 091324Z 26007KT 01/00 A302 RMK A01 T00090003  RH  096%=      5-min Rain = 0
KPD3 091325Z 26007KT 01/00 A302 RMK A01 T00080002  RH  096%=      5-min Rain = 0
KPD3 091326Z 26007KT 01/00 A302 RMK A01 T00080002  RH  096%=      5-min Rain = 0
KPD3 091327Z 26007KT 01/00 A302 RMK A01 T00080002  RH  096%=      5-min Rain = 0
KPD3 091328Z 26007KT 01/00 A302 RMK A01 T00080002  RH  096%=      5-min Rain = 0
KPD3 091329Z 26006KT 01/00 A302 RMK A01 T00090004  RH  096%=      5-min Rain = 0
KPD3 091330Z 26006KT 01/01 A302 RMK A01 T00100005  RH  096%=      5-min Rain = 0
KPD3 091331Z 26005KT 01/01 A302 RMK A01 T00110005  RH  096%=      5-min Rain = 0
KPD3 091332Z 27004KT 01/01 A302 RMK A01 T00120006  RH  096%=      5-min Rain = 0
KPD3 091333Z 27004KT 01/01 A302 RMK A01 T00120006  RH  096%=      5-min Rain = 0
KPD3 091334Z 27004KT 01/01 A302 RMK A01 T00120006  RH  096%=      5-min Rain = 0
KPD3 091335Z 27004KT 01/01 A302 RMK A01 T00140008  RH  096%=      5-min Rain = 0
KPD3 091336Z 27004KT 02/01 A302 RMK A01 T00150009  RH  096%=      5-min Rain = 0
KPD3 091337Z 27004KT 02/01 A302 RMK A01 T00160009  RH  096%=      5-min Rain = 0
KPD3 091338Z 28004KT 02/01 A302 RMK A01 T00160009  RH  095%=      5-min Rain = 0
KPD3 091339Z 28004KT 02/01 A302 RMK A01 T00170010  RH  095%=      5-min Rain = 0
KPD3 091340Z 28005KT 02/01 A302 RMK A01 T00190013  RH  095%=      5-min Rain = 0
KPD3 091341Z 28005KT 02/01 A302 RMK A01 T00200014  RH  095%=      5-min Rain = 0
KPD3 091342Z 28004KT 02/01 A302 RMK A01 T00200012  RH  094%=      5-min Rain = 0
KPD3 091343Z 28004KT 02/01 A302 RMK A01 T00170007  RH  093%=      5-min Rain = 0
KPD3 091344Z 28004KT 02/00 A302 RMK A01 T00150004  RH  093%=      5-min Rain = 0
KPD3 091345Z 28004KT 01/00 A302 RMK A01 T00140004  RH  093%=      5-min Rain = 0
KPD3 091346Z 29003KT 01/00 A302 RMK A01 T00130004  RH  094%=      5-min Rain = 0
KPD3 091347Z 30003KT 01/01 A3021 RMK A01 T00140005  RH  094%=      5-min Rain = 0
KPD3 091348Z 31002KT 01/01 A3021 RMK A01 T00140006  RH  095%=      5-min Rain = 0
KPD3 091349Z 32002KT 02/01 A3021 RMK A01 T00150008  RH  095%=      5-min Rain = 0
KPD3 091350Z 32001KT 02/01 A3021 RMK A01 T00170010  RH  095%=      5-min Rain = 0
KPD3 091351Z 32002KT 02/02 A3021 RMK A01 T00220016  RH  096%=      5-min Rain = 0
KPD3 091352Z 32003KT 03/02 A3021 RMK A01 T00260022  RH  097%=      5-min Rain = 0
KPD3 091353Z 33002KT 03/03 A3021 RMK A01 T00300025  RH  097%=      5-min Rain = 0
KPD3 091354Z 34003KT 03/02 A3021 RMK A01 T00300023  RH  095%=      5-min Rain = 0
KPD3 091355Z 01003KT 03/02 A3021 RMK A01 T00300020  RH  093%=      5-min Rain = 0
KPD3 091356Z 01003KT 03/02 A3021 RMK A01 T00290017  RH  092%=      5-min Rain = 0
KPD3 091357Z 01003KT 03/02 A3021 RMK A01 T00270015  RH  092%=      5-min Rain = 0
KPD3 091358Z 02003KT 03/01 A3021 RMK A01 T00250013  RH  092%=      5-min Rain = 0
KPD3 091359Z 02003KT 02/01 A3021 RMK A01 T00240013  RH  092%=      5-min Rain = 0
KPD3 091400Z 03003KT 02/01 A3021 RMK A01 T00240013  RH  093%=      5-min Rain = 0
KPD3 091401Z 03003KT 02/01 A3021 RMK A01 T00240013  RH  093%=      5-min Rain = 0
KPD3 091402Z 05003KT 02/01 A3021 RMK A01 T00240014  RH  093%=      5-min Rain = 0
KPD3 091403Z 06003KT 03/02 A3021 RMK A01 T00250015  RH  094%=      5-min Rain = 0
KPD3 091404Z 06003KT 03/02 A3021 RMK A01 T00250016  RH  094%=      5-min Rain = 0
KPD3 091405Z 05003KT 03/02 A3021 RMK A01 T00260018  RH  094%=      5-min Rain = 0
KPD3 091406Z 05003KT 03/02 A3021 RMK A01 T00280020  RH  094%=      5-min Rain = 0
KPD3 091407Z 05002KT 03/02 A3021 RMK A01 T00290021  RH  095%=      5-min Rain = 0
KPD3 091408Z 05002KT 03/02 A3021 RMK A01 T00310024  RH  095%=      5-min Rain = 0
KPD3 091409Z 04002KT 03/03 A3021 RMK A01 T00330026  RH  095%=      5-min Rain = 0
KPD3 091410Z 04002KT 04/03 A3021 RMK A01 T00360029  RH  096%=      5-min Rain = 0
KPD3 091411Z 04001KT 04/03 A3021 RMK A01 T00380032  RH  096%=      5-min Rain = 0
KPD3 091412Z 04001KT 04/03 A3021 RMK A01 T00400034  RH  096%=      5-min Rain = 0
KPD3 091413Z 04002KT 04/04 A3021 RMK A01 T00420036  RH  096%=      5-min Rain = 0
KPD3 091414Z 04002KT 04/04 A3021 RMK A01 T00440037  RH  095%=      5-min Rain = 0
KPD3 091415Z 04002KT 05/04 A3021 RMK A01 T00460040  RH  095%=      5-min Rain = 0
KPD3 091416Z 03002KT 05/04 A3021 RMK A01 T00480041  RH  095%=      5-min Rain = 0
KPD3 091417Z 03001KT 05/04 A3021 RMK A01 T00490041  RH  095%=      5-min Rain = 0
KPD3 091418Z 03001KT 05/04 A3021 RMK A01 T00500042  RH  095%=      5-min Rain = 0
KPD3 091419Z 02001KT 05/04 A3021 RMK A01 T00510043  RH  094%=      5-min Rain = 0
KPD3 091420Z 02000KT 05/04 A3021 RMK A01 T00520044  RH  094%=      5-min Rain = 0
KPD3 091421Z 00000KT 05/05 A3021 RMK A01 T00540045  RH  094%=      5-min Rain = 0
KPD3 091422Z 23000KT 06/05 A3021 RMK A01 T00560047  RH  094%=      5-min Rain = 0
KPD3 091423Z 24001KT 06/05 A3021 RMK A01 T00570048  RH  094%=      5-min Rain = 0
KPD3 091424Z 25001KT 06/05 A3021 RMK A01 T00590049  RH  094%=      5-min Rain = 0
KPD3 091425Z 25001KT 06/05 A3021 RMK A01 T00600050  RH  094%=      5-min Rain = 0
KPD3 091426Z 26001KT 06/05 A3021 RMK A01 T00610052  RH  094%=      5-min Rain = 0
KPD3 091427Z 26000KT 06/05 A3021 RMK A01 T00620052  RH  094%=      5-min Rain = 0
KPD3 091428Z 27000KT 06/05 A3021 RMK A01 T00620052  RH  093%=      5-min Rain = 0
KPD3 091429Z 00000KT 06/05 A3021 RMK A01 T00620051  RH  092%=      5-min Rain = 0
KPD3 091430Z 00000KT 06/05 A3021 RMK A01 T00630050  RH  092%=      5-min Rain = 0
KPD3 091431Z 00000KT 06/05 A3021 RMK A01 T00630049  RH  091%=      5-min Rain = 0
KPD3 091432Z 00000KT 06/05 A3021 RMK A01 T00640050  RH  090%=      5-min Rain = 0
KPD3 091433Z 00000KT 07/05 A3021 RMK A01 T00650049  RH  090%=      5-min Rain = 0
KPD3 091434Z 21001KT 07/05 A3021 RMK A01 T00660051  RH  090%=      5-min Rain = 0
KPD3 091435Z 22000KT 07/05 A3021 RMK A01 T00680053  RH  090%=      5-min Rain = 0
KPD3 091436Z 21000KT 07/06 A3021 RMK A01 T00700056  RH  091%=      5-min Rain = 0
KPD3 091437Z 19000KT 07/06 A3021 RMK A01 T00710056  RH  090%=      5-min Rain = 0
KPD3 091438Z 00000KT 07/06 A3021 RMK A01 T00720057  RH  090%=      5-min Rain = 0
KPD3 091439Z 19000KT 07/06 A3021 RMK A01 T00740058  RH  090%=      5-min Rain = 0
KPD3 091440Z 20002KT 08/06 A3021 RMK A01 T00760060  RH  090%=      5-min Rain = 0
KPD3 091441Z 20003KT 08/06 A3021 RMK A01 T00770061  RH  090%=      5-min Rain = 0
KPD3 091442Z 19003KT 08/06 A3021 RMK A01 T00770060  RH  089%=      5-min Rain = 0
KPD3 091443Z 19003KT 08/06 A3021 RMK A01 T00780060  RH  088%=      5-min Rain = 0
KPD3 091444Z 20002KT 08/06 A3021 RMK A01 T00790061  RH  089%=      5-min Rain = 0
KPD3 091445Z 20002KT 08/06 A3021 RMK A01 T00800064  RH  089%=      5-min Rain = 0
KPD3 091446Z 21002KT 08/06 A3021 RMK A01 T00810062  RH  088%=      5-min Rain = 0
KPD3 091447Z 20002KT 08/06 A3021 RMK A01 T00820059  RH  086%=      5-min Rain = 0
KPD3 091448Z 21002KT 08/06 A3021 RMK A01 T00820059  RH  085%=      5-min Rain = 0
KPD3 091449Z 20002KT 08/06 A3021 RMK A01 T00840062  RH  086%=      5-min Rain = 0
KPD3 091450Z 20001KT 09/06 A3021 RMK A01 T00870064  RH  086%=      5-min Rain = 0
KPD3 091451Z 19001KT 09/07 A3021 RMK A01 T00890068  RH  086%=      5-min Rain = 0
KPD3 091452Z 17001KT 09/07 A3021 RMK A01 T00920071  RH  087%=      5-min Rain = 0
KPD3 091453Z 17001KT 10/07 A3021 RMK A01 T00950071  RH  085%=      5-min Rain = 0
KPD3 091454Z 18001KT 10/07 A3022 RMK A01 T00970068  RH  082%=      5-min Rain = 0
KPD3 091455Z 16000KT 10/07 A3022 RMK A01 T00990069  RH  082%=      5-min Rain = 0
KPD3 091456Z 08001KT 10/07 A3022 RMK A01 T01010073  RH  083%=      5-min Rain = 0
KPD3 091457Z 10000KT 10/07 A3022 RMK A01 T01030073  RH  082%=      5-min Rain = 0
KPD3 091458Z 09000KT 10/07 A3022 RMK A01 T01040072  RH  081%=      5-min Rain = 0
KPD3 091459Z 08000KT 11/07 A3022 RMK A01 T01050074  RH  081%=      5-min Rain = 0
KPD3 091500Z 08001KT 11/07 A3022 RMK A01 T01050073  RH  081%=      5-min Rain = 0
KPD3 091501Z 10001KT 11/07 A3022 RMK A01 T01060073  RH  080%=      5-min Rain = 0
KPD3 091502Z 15001KT 11/08 A3022 RMK A01 T01070075  RH  081%=      5-min Rain = 0
KPD3 091503Z 14001KT 11/08 A3022 RMK A01 T01080077  RH  081%=      5-min Rain = 0
KPD3 091504Z 10000KT 11/08 A3022 RMK A01 T01090078  RH  081%=      5-min Rain = 0
KPD3 091505Z 10000KT 11/08 A3022 RMK A01 T01100080  RH  082%=      5-min Rain = 0
KPD3 091506Z 00000KT 11/08 A3022 RMK A01 T01110083  RH  083%=      5-min Rain = 0
KPD3 091507Z 13001KT 11/08 A3022 RMK A01 T01110080  RH  081%=      5-min Rain = 0
KPD3 091508Z 16001KT 11/08 A3022 RMK A01 T01110080  RH  081%=      5-min Rain = 0
KPD3 091509Z 15002KT 11/08 A3022 RMK A01 T01130080  RH  080%=      5-min Rain = 0
KPD3 091510Z 15001KT 11/08 A3022 RMK A01 T01140078  RH  079%=      5-min Rain = 0
KPD3 091511Z 16001KT 12/08 A3022 RMK A01 T01150075  RH  077%=      5-min Rain = 0
KPD3 091512Z 08001KT 12/08 A3022 RMK A01 T01160080  RH  079%=      5-min Rain = 0
KPD3 091513Z 07001KT 12/08 A3022 RMK A01 T01160081  RH  079%=      5-min Rain = 0
KPD3 091514Z 08001KT 12/08 A3022 RMK A01 T01160082  RH  080%=      5-min Rain = 0
KPD3 091515Z 08001KT 12/08 A3022 RMK A01 T01160083  RH  080%=      5-min Rain = 0
KPD3 091516Z 08001KT 12/08 A3022 RMK A01 T01160083  RH  080%=      5-min Rain = 0
KPD3 091517Z 07001KT 12/08 A3022 RMK A01 T01160080  RH  079%=      5-min Rain = 0
KPD3 091518Z 09002KT 12/08 A3022 RMK A01 T01170080  RH  078%=      5-min Rain = 0
KPD3 091519Z 09002KT 12/08 A3022 RMK A01 T01170079  RH  078%=      5-min Rain = 0
KPD3 091520Z 08002KT 12/08 A3022 RMK A01 T01170080  RH  078%=      5-min Rain = 0
KPD3 091521Z 07002KT 12/08 A3022 RMK A01 T01160077  RH  077%=      5-min Rain = 0
KPD3 091522Z 07002KT 12/08 A3022 RMK A01 T01150081  RH  079%=      5-min Rain = 0
KPD3 091523Z 07002KT 12/08 A3022 RMK A01 T01160081  RH  079%=      5-min Rain = 0
KPD3 091524Z 08002KT 12/08 A3022 RMK A01 T01160079  RH  078%=      5-min Rain = 0
KPD3 091525Z 08002KT 12/08 A3022 RMK A01 T01160079  RH  078%=      5-min Rain = 0
KPD3 091526Z 07002KT 12/08 A3022 RMK A01 T01160081  RH  079%=      5-min Rain = 0
KPD3 091527Z 07002KT 12/08 A3022 RMK A01 T01170080  RH  078%=      5-min Rain = 0
KPD3 091528Z 05003KT 12/08 A3022 RMK A01 T01180079  RH  077%=      5-min Rain = 0
KPD3 091529Z 07002KT 12/08 A3022 RMK A01 T01170077  RH  076%=      5-min Rain = 0
KPD3 091530Z 06002KT 12/08 A3022 RMK A01 T01170079  RH  078%=      5-min Rain = 0
KPD3 091531Z 06001KT 12/08 A3022 RMK A01 T01170079  RH  078%=      5-min Rain = 0
KPD3 091532Z 06001KT 12/08 A3022 RMK A01 T01180080  RH  078%=      5-min Rain = 0
KPD3 091533Z 10001KT 12/08 A3022 RMK A01 T01200078  RH  076%=      5-min Rain = 0
KPD3 091534Z 11001KT 12/08 A3022 RMK A01 T01220079  RH  075%=      5-min Rain = 0
KPD3 091535Z 09001KT 12/08 A3022 RMK A01 T01230081  RH  075%=      5-min Rain = 0
KPD3 091536Z 10001KT 13/08 A3022 RMK A01 T01250077  RH  073%=      5-min Rain = 0
KPD3 091537Z 10000KT 12/07 A3022 RMK A01 T01240074  RH  072%=      5-min Rain = 0
KPD3 091538Z 08000KT 12/08 A3022 RMK A01 T01240077  RH  073%=      5-min Rain = 0
KPD3 091539Z 07001KT 13/08 A3022 RMK A01 T01250079  RH  073%=      5-min Rain = 0
KPD3 091540Z 08001KT 13/08 A3022 RMK A01 T01270076  RH  071%=      5-min Rain = 0
KPD3 091541Z 10000KT 13/08 A3022 RMK A01 T01270076  RH  071%=      5-min Rain = 0
KPD3 091542Z 12000KT 13/08 A3022 RMK A01 T01270077  RH  072%=      5-min Rain = 0
KPD3 091543Z 13001KT 13/08 A3022 RMK A01 T01290077  RH  070%=      5-min Rain = 0
KPD3 091544Z 12000KT 13/08 A3022 RMK A01 T01320077  RH  069%=      5-min Rain = 0
KPD3 091545Z 11001KT 13/08 A3022 RMK A01 T01340076  RH  068%=      5-min Rain = 0
KPD3 091546Z 15001KT 13/08 A3022 RMK A01 T01340078  RH  069%=      5-min Rain = 0
KPD3 091547Z 11000KT 13/08 A3022 RMK A01 T01340078  RH  069%=      5-min Rain = 0
KPD3 091548Z 10000KT 14/08 A3022 RMK A01 T01350075  RH  067%=      5-min Rain = 0
KPD3 091549Z 01000KT 14/08 A3022 RMK A01 T01370077  RH  067%=      5-min Rain = 0
KPD3 091550Z 09001KT 14/08 A3022 RMK A01 T01390079  RH  067%=      5-min Rain = 0
KPD3 091551Z 08001KT 14/08 A3022 RMK A01 T01390079  RH  067%=      5-min Rain = 0
KPD3 091552Z 10001KT 14/08 A3022 RMK A01 T01390077  RH  066%=      5-min Rain = 0
KPD3 091553Z 10001KT 14/08 A3022 RMK A01 T01390075  RH  066%=      5-min Rain = 0
KPD3 091554Z 11000KT 14/07 A3022 RMK A01 T01400073  RH  064%=      5-min Rain = 0
KPD3 091555Z 12000KT 14/07 A3022 RMK A01 T01410074  RH  064%=      5-min Rain = 0
KPD3 091556Z 05000KT 14/08 A3022 RMK A01 T01420076  RH  065%=      5-min Rain = 0
KPD3 091557Z 08000KT 14/08 A3022 RMK A01 T01430079  RH  065%=      5-min Rain = 0
KPD3 091558Z 21000KT 15/08 A3022 RMK A01 T01450081  RH  065%=      5-min Rain = 0
KPD3 091559Z 10001KT 15/08 A3022 RMK A01 T01470080  RH  064%=      5-min Rain = 0
KPD3 091600Z 15000KT 15/08 A3022 RMK A01 T01480077  RH  062%=      5-min Rain = 0
KPD3 091601Z 00000KT 15/08 A3022 RMK A01 T01480077  RH  062%=      5-min Rain = 0
KPD3 091602Z 07000KT 15/08 A3022 RMK A01 T01490079  RH  063%=      5-min Rain = 0
KPD3 091603Z 06001KT 15/08 A3022 RMK A01 T01490079  RH  063%=      5-min Rain = 0
KPD3 091604Z 02000KT 15/08 A3022 RMK A01 T01490080  RH  063%=      5-min Rain = 0
KPD3 091605Z 15000KT 15/08 A3022 RMK A01 T01520079  RH  062%=      5-min Rain = 0
KPD3 091606Z 12001KT 16/08 A3022 RMK A01 T01560078  RH  060%=      5-min Rain = 0
KPD3 091607Z 13002KT 16/07 A3021 RMK A01 T01570074  RH  058%=      5-min Rain = 0
KPD3 091608Z 14001KT 16/07 A3021 RMK A01 T01560072  RH  057%=      5-min Rain = 0
KPD3 091609Z 21000KT 16/07 A3021 RMK A01 T01560074  RH  058%=      5-min Rain = 0
KPD3 091610Z 00000KT 16/07 A3021 RMK A01 T01570074  RH  058%=      5-min Rain = 0
KPD3 091611Z 16001KT 16/07 A3021 RMK A01 T01590072  RH  056%=      5-min Rain = 0
KPD3 091612Z 13001KT 16/07 A3021 RMK A01 T01610072  RH  055%=      5-min Rain = 0
KPD3 091613Z 13002KT 16/07 A3021 RMK A01 T01630073  RH  055%=      5-min Rain = 0
KPD3 091614Z 14002KT 16/07 A3021 RMK A01 T01640073  RH  055%=      5-min Rain = 0
KPD3 091615Z 16001KT 16/07 A3021 RMK A01 T01640071  RH  054%=      5-min Rain = 0
KPD3 091616Z 15000KT 17/07 A3021 RMK A01 T01650072  RH  054%=      5-min Rain = 0
KPD3 091617Z 12000KT 17/08 A3021 RMK A01 T01670076  RH  055%=      5-min Rain = 0
KPD3 091618Z 19000KT 17/08 A3021 RMK A01 T01700077  RH  054%=      5-min Rain = 0
KPD3 091619Z 08001KT 17/08 A3021 RMK A01 T01730077  RH  053%=      5-min Rain = 0
KPD3 091620Z 09002KT 17/08 A3021 RMK A01 T01730075  RH  053%=      5-min Rain = 0
KPD3 091621Z 10002KT 17/08 A3021 RMK A01 T01710075  RH  053%=      5-min Rain = 0
KPD3 091622Z 08001KT 17/08 A3021 RMK A01 T01710078  RH  054%=      5-min Rain = 0
KPD3 091623Z 11001KT 17/08 A3021 RMK A01 T01720075  RH  053%=      5-min Rain = 0
KPD3 091624Z 11002KT 17/08 A3021 RMK A01 T01710077  RH  054%=      5-min Rain = 0
KPD3 091625Z 10002KT 17/08 A3021 RMK A01 T01700077  RH  054%=      5-min Rain = 0
KPD3 091626Z 10002KT 17/08 A3021 RMK A01 T01700078  RH  055%=      5-min Rain = 0
KPD3 091627Z 11002KT 17/08 A3021 RMK A01 T01700076  RH  054%=      5-min Rain = 0
KPD3 091628Z 11003KT 17/08 A3021 RMK A01 T01700077  RH  054%=      5-min Rain = 0
KPD3 091629Z 14002KT 17/08 A3021 RMK A01 T01710076  RH  054%=      5-min Rain = 0
KPD3 091630Z 12001KT 17/08 A3021 RMK A01 T01710076  RH  053%=      5-min Rain = 0
KPD3 091631Z 08002KT 17/08 A3021 RMK A01 T01720078  RH  054%=      5-min Rain = 0
KPD3 091632Z 09002KT 17/08 A3021 RMK A01 T01730078  RH  054%=      5-min Rain = 0
KPD3 091633Z 09002KT 17/08 A3021 RMK A01 T01740078  RH  053%=      5-min Rain = 0
KPD3 091634Z 14002KT 18/08 A3021 RMK A01 T01750076  RH  052%=      5-min Rain = 0
KPD3 091635Z 13002KT 18/08 A3021 RMK A01 T01760076  RH  052%=      5-min Rain = 0
KPD3 091636Z 12001KT 18/08 A3021 RMK A01 T01770075  RH  051%=      5-min Rain = 0
KPD3 091637Z 13002KT 18/08 A3021 RMK A01 T01780075  RH  051%=      5-min Rain = 0
KPD3 091638Z 12003KT 18/08 A3021 RMK A01 T01780077  RH  052%=      5-min Rain = 0
KPD3 091639Z 11003KT 18/08 A3021 RMK A01 T01780076  RH  051%=      5-min Rain = 0
KPD3 091640Z 12003KT 18/08 A3021 RMK A01 T01790079  RH  052%=      5-min Rain = 0
KPD3 091641Z 11003KT 18/08 A3021 RMK A01 T01810078  RH  051%=      5-min Rain = 0
KPD3 091642Z 12003KT 18/08 A3021 RMK A01 T01830079  RH  051%=      5-min Rain = 0
KPD3 091643Z 14001KT 18/08 A3021 RMK A01 T01840077  RH  050%=      5-min Rain = 0
KPD3 091644Z 10000KT 18/08 A3021 RMK A01 T01840077  RH  050%=      5-min Rain = 0
KPD3 091645Z 08000KT 19/08 A3021 RMK A01 T01850075  RH  049%=      5-min Rain = 0
KPD3 091646Z 21001KT 19/08 A3021 RMK A01 T01860076  RH  049%=      5-min Rain = 0
KPD3 091647Z 18004KT 19/07 A3021 RMK A01 T01860071  RH  047%=      5-min Rain = 0
KPD3 091648Z 17004KT 19/07 A3021 RMK A01 T01860071  RH  047%=      5-min Rain = 0
KPD3 091649Z 18003KT 19/07 A3021 RMK A01 T01860069  RH  046%=      5-min Rain = 0
KPD3 091650Z 17002KT 19/07 A3021 RMK A01 T01860067  RH  046%=      5-min Rain = 0
KPD3 091651Z 19001KT 19/07 A3021 RMK A01 T01860066  RH  046%=      5-min Rain = 0
KPD3 091652Z 17003KT 19/07 A3021 RMK A01 T01870066  RH  045%=      5-min Rain = 0
KPD3 091653Z 16002KT 19/06 A3021 RMK A01 T01870063  RH  044%=      5-min Rain = 0
KPD3 091654Z 17001KT 19/07 A3021 RMK A01 T01880065  RH  045%=      5-min Rain = 0
KPD3 091655Z 15001KT 19/06 A3021 RMK A01 T01890064  RH  044%=      5-min Rain = 0
KPD3 091656Z 17003KT 19/07 A3021 RMK A01 T01900065  RH  044%=      5-min Rain = 0
KPD3 091657Z 17003KT 19/06 A3021 RMK A01 T01910064  RH  044%=      5-min Rain = 0
KPD3 091658Z 17003KT 19/06 A3021 RMK A01 T01900064  RH  044%=      5-min Rain = 0
KPD3 091659Z 16003KT 19/07 A3021 RMK A01 T01910065  RH  044%=      5-min Rain = 0
KPD3 091700Z 16002KT 19/06 A3021 RMK A01 T01920063  RH  043%=      5-min Rain = 0
KPD3 091701Z 16001KT 19/06 A3021 RMK A01 T01920063  RH  043%=      5-min Rain = 0
KPD3 091702Z 16004KT 19/07 A3021 RMK A01 T01930065  RH  043%=      5-min Rain = 0
KPD3 091703Z 16003KT 19/07 A3021 RMK A01 T01940067  RH  044%=      5-min Rain = 0
KPD3 091704Z 16003KT 19/07 A3021 RMK A01 T01940068  RH  044%=      5-min Rain = 0
KPD3 091705Z 15003KT 19/07 A3021 RMK A01 T01940069  RH  044%=      5-min Rain = 0
KPD3 091706Z 16004KT 19/07 A302 RMK A01 T01940068  RH  044%=      5-min Rain = 0
KPD3 091707Z 15005KT 19/07 A302 RMK A01 T01940070  RH  044%=      5-min Rain = 0
KPD3 091708Z 16005KT 20/07 A302 RMK A01 T01960069  RH  044%=      5-min Rain = 0
KPD3 091709Z 17004KT 20/07 A302 RMK A01 T01960070  RH  044%=      5-min Rain = 0
KPD3 091710Z 17003KT 20/07 A302 RMK A01 T01970073  RH  045%=      5-min Rain = 0
KPD3 091711Z 18004KT 20/07 A302 RMK A01 T01990073  RH  044%=      5-min Rain = 0
KPD3 091712Z 16005KT 20/07 A302 RMK A01 T01990070  RH  043%=      5-min Rain = 0
KPD3 091713Z 15005KT 20/07 A302 RMK A01 T01980070  RH  043%=      5-min Rain = 0
KPD3 091714Z 16005KT 20/07 A302 RMK A01 T01980072  RH  044%=      5-min Rain = 0
KPD3 091715Z 15004KT 20/07 A302 RMK A01 T02000074  RH  044%=      5-min Rain = 0
KPD3 091716Z 18003KT 20/07 A302 RMK A01 T02020072  RH  043%=      5-min Rain = 0
KPD3 091717Z 18004KT 20/07 A302 RMK A01 T02020072  RH  043%=      5-min Rain = 0
KPD3 091718Z 16005KT 20/07 A302 RMK A01 T02020070  RH  042%=      5-min Rain = 0
KPD3 091719Z 16004KT 20/07 A302 RMK A01 T02010071  RH  043%=      5-min Rain = 0
KPD3 091720Z 16005KT 20/07 A302 RMK A01 T02010070  RH  043%=      5-min Rain = 0
KPD3 091721Z 17005KT 20/07 A302 RMK A01 T02000069  RH  043%=      5-min Rain = 0
KPD3 091722Z 16004KT 20/07 A302 RMK A01 T01990070  RH  043%=      5-min Rain = 0
KPD3 091723Z 16005KT 20/07 A302 RMK A01 T02000072  RH  043%=      5-min Rain = 0
KPD3 091724Z 17005KT 20/07 A302 RMK A01 T02020072  RH  043%=      5-min Rain = 0
KPD3 091725Z 16006KT 20/07 A302 RMK A01 T02030072  RH  042%=      5-min Rain = 0
KPD3 091726Z 16005KT 20/07 A302 RMK A01 T02040070  RH  042%=      5-min Rain = 0
KPD3 091727Z 15006KT 20/07 A302 RMK A01 T02040069  RH  042%=      5-min Rain = 0
KPD3 091728Z 14005KT 20/07 A302 RMK A01 T02030067  RH  041%=      5-min Rain = 0
KPD3 091729Z 16006KT 20/07 A302 RMK A01 T02030069  RH  042%=      5-min Rain = 0
KPD3 091730Z 15007KT 20/07 A302 RMK A01 T02040067  RH  041%=      5-min Rain = 0
KPD3 091731Z 18005KT 20/07 A302 RMK A01 T02040067  RH  041%=      5-min Rain = 0
KPD3 091732Z 18007KT 20/07 A302 RMK A01 T02040067  RH  041%=      5-min Rain = 0
KPD3 091733Z 16006KT 21/07 A302 RMK A01 T02060067  RH  040%=      5-min Rain = 0
KPD3 091734Z 16006KT 21/07 A302 RMK A01 T02060067  RH  040%=      5-min Rain = 0
KPD3 091735Z 17007KT 21/07 A302 RMK A01 T02080069  RH  041%=      5-min Rain = 0
KPD3 091736Z 18006KT 21/07 A302 RMK A01 T02090065  RH  039%=      5-min Rain = 0
KPD3 091737Z 18006KT 21/06 A302 RMK A01 T02100064  RH  039%=      5-min Rain = 0
KPD3 091738Z 17006KT 21/06 A302 RMK A01 T02100064  RH  039%=      5-min Rain = 0
KPD3 091739Z 20005KT 21/07 A3019 RMK A01 T02100066  RH  039%=      5-min Rain = 0
KPD3 091740Z 21004KT 21/07 A3019 RMK A01 T02100066  RH  039%=      5-min Rain = 0
KPD3 091741Z 19006KT 21/06 A3019 RMK A01 T02110061  RH  038%=      5-min Rain = 0
KPD3 091742Z 20004KT 21/06 A302 RMK A01 T02110057  RH  037%=      5-min Rain = 0
KPD3 091743Z 19003KT 21/06 A3019 RMK A01 T02110057  RH  037%=      5-min Rain = 0
KPD3 091744Z 21003KT 21/05 A3019 RMK A01 T02110052  RH  035%=      5-min Rain = 0
KPD3 091745Z 19005KT 21/06 A3019 RMK A01 T02120056  RH  036%=      5-min Rain = 0
KPD3 091746Z 19005KT 21/06 A3019 RMK A01 T02120061  RH  037%=      5-min Rain = 0
KPD3 091747Z 18006KT 21/06 A3019 RMK A01 T02130063  RH  038%=      5-min Rain = 0
KPD3 091748Z 18006KT 21/06 A3019 RMK A01 T02140062  RH  037%=      5-min Rain = 0
KPD3 091749Z 18004KT 22/06 A3019 RMK A01 T02150059  RH  036%=      5-min Rain = 0
KPD3 091750Z 19004KT 22/06 A3019 RMK A01 T02160060  RH  036%=      5-min Rain = 0
KPD3 091751Z 20004KT 22/06 A3019 RMK A01 T02170063  RH  037%=      5-min Rain = 0
KPD3 091752Z 19006KT 22/06 A3019 RMK A01 T02190057  RH  035%=      5-min Rain = 0
KPD3 091753Z 19006KT 22/06 A3019 RMK A01 T02200056  RH  035%=      5-min Rain = 0
KPD3 091754Z 20006KT 22/06 A3019 RMK A01 T02200056  RH  034%=      5-min Rain = 0
KPD3 091755Z 22005KT 22/05 A3019 RMK A01 T02190050  RH  033%=      5-min Rain = 0
KPD3 091756Z 21003KT 22/05 A3019 RMK A01 T02190049  RH  033%=      5-min Rain = 0
KPD3 091757Z 21006KT 22/05 A3019 RMK A01 T02190052  RH  034%=      5-min Rain = 0
KPD3 091758Z 22006KT 22/02 A3018 RMK A01 T02200022  RH  027%=      5-min Rain = 0
KPD3 091759Z 22003KT 22/03 A3018 RMK A01 T02200030  RH  029%=      5-min Rain = 0
KPD3 091800Z 21002KT 22/03 A3018 RMK A01 T02200031  RH  029%=      5-min Rain = 0
KPD3 091801Z 23005KT 22/03 A3018 RMK A01 T02200032  RH  029%=      5-min Rain = 0
KPD3 091802Z 22005KT 22/02 A3018 RMK A01 T02220024  RH  027%=      5-min Rain = 0
KPD3 091803Z 19005KT 23/02 A3018 RMK A01 T02250019  RH  026%=      5-min Rain = 0
KPD3 091804Z 19007KT 23/03 A3018 RMK A01 T02250026  RH  027%=      5-min Rain = 0
KPD3 091805Z 18006KT 23/03 A3018 RMK A01 T02260025  RH  027%=      5-min Rain = 0
KPD3 091806Z 19006KT 23/02 A3018 RMK A01 T02250023  RH  027%=      5-min Rain = 0
KPD3 091807Z 22007KT 22/03 A3018 RMK A01 T02240027  RH  027%=      5-min Rain = 0
KPD3 091808Z 23006KT 23/03 A3018 RMK A01 T02260031  RH  028%=      5-min Rain = 0
KPD3 091809Z 24006KT 23/02 A3018 RMK A01 T02280020  RH  026%=      5-min Rain = 0
KPD3 091810Z 24007KT 23/02 A3018 RMK A01 T02290023  RH  026%=      5-min Rain = 0
KPD3 091811Z 22006KT 23/03 A3018 RMK A01 T02290032  RH  028%=      5-min Rain = 0
KPD3 091812Z 22005KT 23/04 A3018 RMK A01 T02280036  RH  028%=      5-min Rain = 0
KPD3 091813Z 19005KT 23/03 A3018 RMK A01 T02290028  RH  027%=      5-min Rain = 0
KPD3 091814Z 20005KT 23/03 A3018 RMK A01 T02280028  RH  027%=      5-min Rain = 0
KPD3 091815Z 20005KT 23/04 A3018 RMK A01 T02280035  RH  028%=      5-min Rain = 0
KPD3 091816Z 20005G10KT 23/04 A3017 RMK A01 T02260035  RH  029%=      5-min Rain = 0
KPD3 091817Z 20007KT 23/03 A3017 RMK A01 T02250032  RH  028%=      5-min Rain = 0
KPD3 091818Z 19008KT 23/03 A3017 RMK A01 T02260033  RH  028%=      5-min Rain = 0
KPD3 091819Z 24006KT 23/04 A3017 RMK A01 T02280036  RH  029%=      5-min Rain = 0
KPD3 091820Z 23004KT 23/04 A3017 RMK A01 T02300037  RH  028%=      5-min Rain = 0
KPD3 091821Z 22008KT 23/04 A3017 RMK A01 T02310037  RH  028%=      5-min Rain = 0
KPD3 091822Z 22006KT 23/04 A3017 RMK A01 T02300038  RH  029%=      5-min Rain = 0
KPD3 091823Z 20008KT 23/04 A3017 RMK A01 T02290039  RH  029%=      5-min Rain = 0
KPD3 091824Z 20009KT 23/03 A3017 RMK A01 T02300032  RH  027%=      5-min Rain = 0
KPD3 091825Z 19007KT 23/03 A3017 RMK A01 T02280030  RH  027%=      5-min Rain = 0
KPD3 091826Z 20007KT 23/03 A3017 RMK A01 T02280025  RH  026%=      5-min Rain = 0
KPD3 091827Z 21007KT 23/03 A3017 RMK A01 T02280028  RH  027%=      5-min Rain = 0
KPD3 091828Z 21007KT 23/03 A3016 RMK A01 T02280030  RH  027%=      5-min Rain = 0
KPD3 091829Z 21006KT 23/04 A3016 RMK A01 T02280035  RH  028%=      5-min Rain = 0
KPD3 091830Z 20007KT 23/04 A3016 RMK A01 T02290035  RH  028%=      5-min Rain = 0
KPD3 091831Z 20008KT 23/03 A3016 RMK A01 T02310030  RH  027%=      5-min Rain = 0
KPD3 091832Z 20007KT 23/03 A3016 RMK A01 T02310025  RH  026%=      5-min Rain = 0
KPD3 091833Z 22007KT 23/03 A3016 RMK A01 T02310034  RH  028%=      5-min Rain = 0
KPD3 091834Z 21007KT 23/04 A3016 RMK A01 T02320036  RH  028%=      5-min Rain = 0
KPD3 091835Z 22007KT 23/04 A3016 RMK A01 T02320036  RH  028%=      5-min Rain = 0
KPD3 091836Z 23007KT 23/04 A3016 RMK A01 T02310035  RH  028%=      5-min Rain = 0
KPD3 091837Z 23008KT 23/03 A3016 RMK A01 T02300032  RH  027%=      5-min Rain = 0
KPD3 091838Z 22008KT 23/03 A3016 RMK A01 T02300025  RH  026%=      5-min Rain = 0
KPD3 091839Z 21007KT 23/03 A3016 RMK A01 T02290028  RH  027%=      5-min Rain = 0
KPD3 091840Z 22007KT 23/04 A3016 RMK A01 T02290035  RH  028%=      5-min Rain = 0
KPD3 091841Z 22005KT 23/03 A3016 RMK A01 T02290032  RH  027%=      5-min Rain = 0
KPD3 091842Z 20006KT 23/03 A3016 RMK A01 T02300033  RH  028%=      5-min Rain = 0
KPD3 091843Z 22008KT 23/03 A3016 RMK A01 T02310033  RH  027%=      5-min Rain = 0
KPD3 091844Z 23007KT 23/03 A3015 RMK A01 T02320033  RH  027%=      5-min Rain = 0
KPD3 091845Z 23006KT 23/02 A3015 RMK A01 T02330023  RH  025%=      5-min Rain = 0
KPD3 091846Z 23006KT 23/03 A3015 RMK A01 T02310032  RH  027%=      5-min Rain = 0
KPD3 091847Z 21006KT 23/03 A3015 RMK A01 T02310031  RH  027%=      5-min Rain = 0
KPD3 091848Z 22007KT 23/03 A3015 RMK A01 T02310033  RH  027%=      5-min Rain = 0
KPD3 091849Z 22007KT 23/03 A3015 RMK A01 T02330031  RH  027%=      5-min Rain = 0
KPD3 091850Z 22006KT 23/03 A3015 RMK A01 T02330030  RH  027%=      5-min Rain = 0
KPD3 091851Z 24006KT 23/04 A3015 RMK A01 T02330036  RH  028%=      5-min Rain = 0
KPD3 091852Z 25005KT 23/04 A3015 RMK A01 T02330036  RH  028%=      5-min Rain = 0
KPD3 091853Z 24007KT 23/04 A3015 RMK A01 T02330036  RH  028%=      5-min Rain = 0
KPD3 091854Z 24007KT 24/04 A3015 RMK A01 T02350036  RH  027%=      5-min Rain = 0
KPD3 091855Z 25006KT 24/04 A3015 RMK A01 T02360037  RH  027%=      5-min Rain = 0
KPD3 091856Z 26005KT 24/04 A3015 RMK A01 T02360038  RH  028%=      5-min Rain = 0
KPD3 091857Z 24005KT 24/04 A3015 RMK A01 T02350036  RH  027%=      5-min Rain = 0
KPD3 091858Z 25007KT 24/04 A3015 RMK A01 T02350035  RH  027%=      5-min Rain = 0
KPD3 091859Z 26007KT 24/03 A3014 RMK A01 T02350032  RH  027%=      5-min Rain = 0
KPD3 091900Z 25007KT 24/04 A3014 RMK A01 T02350035  RH  027%=      5-min Rain = 0
KPD3 091901Z 23006KT 24/03 A3014 RMK A01 T02360033  RH  027%=      5-min Rain = 0
KPD3 091902Z 24006KT 24/04 A3014 RMK A01 T02360035  RH  027%=      5-min Rain = 0
KPD3 091903Z 25006KT 24/03 A3014 RMK A01 T02360034  RH  027%=      5-min Rain = 0
KPD3 091904Z 24008KT 24/04 A3014 RMK A01 T02380036  RH  027%=      5-min Rain = 0
KPD3 091905Z 22006KT 24/03 A3014 RMK A01 T02400027  RH  025%=      5-min Rain = 0
KPD3 091906Z 22005KT 24/03 A3014 RMK A01 T02400027  RH  025%=      5-min Rain = 0
KPD3 091907Z 24006KT 24/03 A3014 RMK A01 T02390029  RH  025%=      5-min Rain = 0
KPD3 091908Z 25008KT 24/01 A3014 RMK A01 T02380013  RH  023%=      5-min Rain = 0
KPD3 091909Z 25004KT 24/01 A3014 RMK A01 T02390008  RH  022%=      5-min Rain = 0
KPD3 091910Z 24007KT 24/02 A3014 RMK A01 T02400015  RH  023%=      5-min Rain = 0
KPD3 091911Z 23007KT 24/01 A3014 RMK A01 T02420008  RH  021%=      5-min Rain = 0
KPD3 091912Z 24006KT 24/01 A3014 RMK A01 T02430014  RH  022%=      5-min Rain = 0
KPD3 091913Z 25004KT 24/02 A3014 RMK A01 T02420020  RH  023%=      5-min Rain = 0
KPD3 091914Z 24006KT 24/02 A3013 RMK A01 T02410019  RH  023%=      5-min Rain = 0
KPD3 091915Z 22005KT 24/02 A3013 RMK A01 T02410023  RH  024%=      5-min Rain = 0
KPD3 091916Z 22007KT 24/02 A3013 RMK A01 T02420023  RH  024%=      5-min Rain = 0
KPD3 091917Z 20006KT 24/02 A3013 RMK A01 T02430019  RH  023%=      5-min Rain = 0
KPD3 091918Z 22008KT 25/02 A3013 RMK A01 T02450021  RH  023%=      5-min Rain = 0
KPD3 091919Z 23008KT 25/02 A3013 RMK A01 T02480019  RH  022%=      5-min Rain = 0
KPD3 091920Z 22009KT 25/01 A3013 RMK A01 T02480014  RH  022%=      5-min Rain = 0
KPD3 091921Z 23009KT 25/01 A3013 RMK A01 T02470010  RH  021%=      5-min Rain = 0
KPD3 091922Z 23008KT 25/02 A3013 RMK A01 T02470019  RH  022%=      5-min Rain = 0
KPD3 091923Z 23007KT 25/02 A3013 RMK A01 T02470015  RH  022%=      5-min Rain = 0
KPD3 091924Z 23007KT 25/02 A3013 RMK A01 T02450015  RH  022%=      5-min Rain = 0
KPD3 091925Z 23008KT 25/02 A3013 RMK A01 T02460015  RH  022%=      5-min Rain = 0
KPD3 091926Z 23007KT 25/02 A3013 RMK A01 T02460017  RH  022%=      5-min Rain = 0
KPD3 091927Z 23009KT 25/02 A3013 RMK A01 T02460018  RH  023%=      5-min Rain = 0
KPD3 091928Z 24006KT 25/02 A3013 RMK A01 T02450018  RH  023%=      5-min Rain = 0
KPD3 091929Z 24006KT 25/02 A3013 RMK A01 T02450022  RH  023%=      5-min Rain = 0
KPD3 091930Z 23008KT 25/02 A3013 RMK A01 T02450017  RH  022%=      5-min Rain = 0
KPD3 091931Z 23007KT 25/02 A3012 RMK A01 T02470020  RH  023%=      5-min Rain = 0
KPD3 091932Z 24006KT 25/02 A3012 RMK A01 T02460022  RH  023%=      5-min Rain = 0
KPD3 091933Z 23009KT 25/03 A3012 RMK A01 T02460028  RH  024%=      5-min Rain = 0
KPD3 091934Z 23009KT 25/02 A3012 RMK A01 T02480024  RH  023%=      5-min Rain = 0
KPD3 091935Z 24009KT 25/03 A3012 RMK A01 T02480030  RH  024%=      5-min Rain = 0
KPD3 091936Z 26008KT 25/03 A3012 RMK A01 T02470027  RH  024%=      5-min Rain = 0
KPD3 091937Z 26008KT 25/03 A3012 RMK A01 T02460029  RH  024%=      5-min Rain = 0
KPD3 091938Z 25007G12KT 25/03 A3012 RMK A01 T02470033  RH  025%=      5-min Rain = 0
KPD3 091939Z 25006KT 25/03 A3012 RMK A01 T02480030  RH  024%=      5-min Rain = 0
KPD3 091940Z 25008KT 25/03 A3012 RMK A01 T02490032  RH  024%=      5-min Rain = 0
KPD3 091941Z 25009KT 25/03 A3012 RMK A01 T02500029  RH  024%=      5-min Rain = 0
KPD3 091942Z 24007KT 25/03 A3012 RMK A01 T02500029  RH  024%=      5-min Rain = 0
KPD3 091943Z 23004KT 25/03 A3012 RMK A01 T02500030  RH  024%=      5-min Rain = 0
KPD3 091944Z 21008KT 25/03 A3012 RMK A01 T02500031  RH  024%=      5-min Rain = 0
KPD3 091945Z 20009KT 25/03 A3012 RMK A01 T02510033  RH  024%=      5-min Rain = 0
KPD3 091946Z 21005KT 25/03 A3012 RMK A01 T02500028  RH  024%=      5-min Rain = 0
KPD3 091947Z 20005KT 25/03 A3012 RMK A01 T02470030  RH  024%=      5-min Rain = 0
KPD3 091948Z 21006KT 25/03 A3012 RMK A01 T02470034  RH  025%=      5-min Rain = 0
KPD3 091949Z 21007KT 25/04 A3011 RMK A01 T02480035  RH  025%=      5-min Rain = 0
KPD3 091950Z 22006KT 25/04 A3011 RMK A01 T02480037  RH  025%=      5-min Rain = 0
KPD3 091951Z 24010KT 25/03 A3011 RMK A01 T02490034  RH  025%=      5-min Rain = 0
KPD3 091952Z 25008KT 25/03 A3011 RMK A01 T02500028  RH  024%=      5-min Rain = 0
KPD3 091953Z 25008KT 25/03 A3011 RMK A01 T02490031  RH  024%=      5-min Rain = 0
KPD3 091954Z 26007KT 25/03 A3011 RMK A01 T02490032  RH  024%=      5-min Rain = 0
KPD3 091955Z 26006KT 25/03 A3011 RMK A01 T02490032  RH  024%=      5-min Rain = 0
KPD3 091956Z 27004KT 25/03 A3011 RMK A01 T02480028  RH  024%=      5-min Rain = 0
KPD3 091957Z 26003KT 25/03 A3011 RMK A01 T02470028  RH  024%=      5-min Rain = 0
KPD3 091958Z 23005KT 25/03 A3011 RMK A01 T02460029  RH  024%=      5-min Rain = 0
KPD3 091959Z 23006KT 25/03 A3011 RMK A01 T02460033  RH  025%=      5-min Rain = 0
KPD3 092000Z 21005KT 25/04 A3011 RMK A01 T02470036  RH  025%=      5-min Rain = 0
KPD3 092001Z 20007G12KT 25/03 A3011 RMK A01 T02500028  RH  024%=      5-min Rain = 0
KPD3 092002Z 21010KT 25/03 A3011 RMK A01 T02500032  RH  024%=      5-min Rain = 0
KPD3 092003Z 22009KT 25/03 A3011 RMK A01 T02510031  RH  024%=      5-min Rain = 0
KPD3 092004Z 21007KT 25/03 A3011 RMK A01 T02500026  RH  023%=      5-min Rain = 0
KPD3 092005Z 20008KT 25/02 A3011 RMK A01 T02500024  RH  023%=      5-min Rain = 0
KPD3 092006Z 21007KT 25/02 A3011 RMK A01 T02500021  RH  022%=      5-min Rain = 0
KPD3 092007Z 22004KT 25/02 A3011 RMK A01 T02500023  RH  023%=      5-min Rain = 0
KPD3 092008Z 24005KT 25/02 A3011 RMK A01 T02510023  RH  023%=      5-min Rain = 0
KPD3 092009Z 24005KT 25/02 A301 RMK A01 T02510019  RH  022%=      5-min Rain = 0
KPD3 092010Z 19007KT 25/02 A301 RMK A01 T02500022  RH  023%=      5-min Rain = 0
KPD3 092011Z 19008KT 25/02 A301 RMK A01 T02500019  RH  022%=      5-min Rain = 0
KPD3 092012Z 19008KT 25/02 A301 RMK A01 T02510023  RH  023%=      5-min Rain = 0
KPD3 092013Z 19006KT 25/02 A301 RMK A01 T02530021  RH  022%=      5-min Rain = 0
KPD3 092014Z 18006KT 25/02 A301 RMK A01 T02530023  RH  022%=      5-min Rain = 0
KPD3 092015Z 22008KT 25/02 A301 RMK A01 T02520020  RH  022%=      5-min Rain = 0
KPD3 092016Z 25008KT 25/02 A301 RMK A01 T02530023  RH  022%=      5-min Rain = 0
KPD3 092017Z 25006KT 25/02 A301 RMK A01 T02530019  RH  022%=      5-min Rain = 0
KPD3 092018Z 24005KT 25/02 A301 RMK A01 T02500018  RH  022%=      5-min Rain = 0
KPD3 092019Z 24008KT 25/02 A301 RMK A01 T02500021  RH  022%=      5-min Rain = 0
KPD3 092020Z 22005KT 25/02 A301 RMK A01 T02510019  RH  022%=      5-min Rain = 0
KPD3 092021Z 18008KT 25/02 A301 RMK A01 T02520015  RH  021%=      5-min Rain = 0
KPD3 092022Z 18008KT 25/01 A301 RMK A01 T02530006  RH  020%=      5-min Rain = 0
KPD3 092023Z 20009KT 25/01 A301 RMK A01 T02540005  RH  020%=      5-min Rain = 0
KPD3 092024Z 18009KT 25/00 A301 RMK A01 T02540001  RH  019%=      5-min Rain = 0
KPD3 092025Z 17006KT 26/00 A301 RMK A01 T02550000  RH  019%=      5-min Rain = 0
KPD3 092026Z 19006KT 26/00 A301 RMK A01 T02550003  RH  019%=      5-min Rain = 0
KPD3 092027Z 20005KT 26/M00 A301 RMK A01 T02571003  RH  018%=      5-min Rain = 0
KPD3 092028Z 22006KT 26/M00 A301 RMK A01 T02591003  RH  018%=      5-min Rain = 0
KPD3 092029Z 20010KT 26/M01 A301 RMK A01 T02601008  RH  017%=      5-min Rain = 0
KPD3 092030Z 19009KT 26/M01 A301 RMK A01 T02581011  RH  017%=      5-min Rain = 0
KPD3 092031Z 21007KT 26/M01 A301 RMK A01 T02561014  RH  017%=      5-min Rain = 0
KPD3 092032Z 20009KT 26/M01 A301 RMK A01 T02551014  RH  017%=      5-min Rain = 0
KPD3 092033Z 19008KT 25/M01 A301 RMK A01 T02541012  RH  017%=      5-min Rain = 0
KPD3 092034Z 19010KT 25/M00 A3009 RMK A01 T02541003  RH  018%=      5-min Rain = 0
KPD3 092035Z 19011KT 26/M00 A3009 RMK A01 T02551002  RH  018%=      5-min Rain = 0
KPD3 092036Z 20009KT 25/M00 A3009 RMK A01 T02541001  RH  019%=      5-min Rain = 0
KPD3 092037Z 19011KT 26/01 A3009 RMK A01 T02550005  RH  019%=      5-min Rain = 0
KPD3 092038Z 19011KT 26/01 A3009 RMK A01 T02560005  RH  019%=      5-min Rain = 0
KPD3 092039Z 19010KT 25/01 A3009 RMK A01 T02540006  RH  020%=      5-min Rain = 0
KPD3 092040Z 19008KT 25/00 A3009 RMK A01 T02530004  RH  020%=      5-min Rain = 0
KPD3 092041Z 18008KT 25/01 A3009 RMK A01 T02530005  RH  020%=      5-min Rain = 0
KPD3 092042Z 19010KT 26/01 A3009 RMK A01 T02550005  RH  019%=      5-min Rain = 0
KPD3 092043Z 20010KT 25/00 A3009 RMK A01 T02540000  RH  019%=      5-min Rain = 0
KPD3 092044Z 22010KT 25/M00 A3009 RMK A01 T02541002  RH  019%=      5-min Rain = 0
KPD3 092045Z 21009KT 25/M00 A3009 RMK A01 T02531002  RH  019%=      5-min Rain = 0
KPD3 092046Z 21007KT 25/M01 A3009 RMK A01 T02531005  RH  018%=      5-min Rain = 0
KPD3 092047Z 20005KT 25/M01 A3009 RMK A01 T02521007  RH  018%=      5-min Rain = 0
KPD3 092048Z 20007KT 25/M01 A3009 RMK A01 T02531006  RH  018%=      5-min Rain = 0
KPD3 092049Z 19008KT 26/M01 A3009 RMK A01 T02551006  RH  018%=      5-min Rain = 0
KPD3 092050Z 19009KT 26/M01 A3009 RMK A01 T02571006  RH  018%=      5-min Rain = 0
KPD3 092051Z 20008KT 26/M01 A3009 RMK A01 T02581011  RH  017%=      5-min Rain = 0
KPD3 092052Z 22009G14KT 26/M01 A3009 RMK A01 T02571011  RH  017%=      5-min Rain = 0
KPD3 092053Z 23009KT 26/M02 A3009 RMK A01 T02571018  RH  016%=      5-min Rain = 0
KPD3 092054Z 24008KT 26/M02 A3009 RMK A01 T02561018  RH  016%=      5-min Rain = 0
KPD3 092055Z 24007KT 26/M02 A3009 RMK A01 T02561020  RH  016%=      5-min Rain = 0
KPD3 092056Z 21007KT 26/M02 A3009 RMK A01 T02571017  RH  016%=      5-min Rain = 0
KPD3 092057Z 20008KT 26/M01 A3009 RMK A01 T02581007  RH  017%=      5-min Rain = 0
KPD3 092058Z 20007KT 26/M01 A3008 RMK A01 T02591006  RH  018%=      5-min Rain = 0
KPD3 092059Z 18007KT 26/M01 A3009 RMK A01 T02581008  RH  017%=      5-min Rain = 0
KPD3 092100Z 21009KT 26/M01 A3009 RMK A01 T02591007  RH  017%=      5-min Rain = 0
KPD3 092101Z 22010KT 26/M01 A3008 RMK A01 T02591008  RH  017%=      5-min Rain = 0
KPD3 092102Z 23012KT 26/M01 A3008 RMK A01 T02581007  RH  018%=      5-min Rain = 0
KPD3 092103Z 23009KT 26/M01 A3008 RMK A01 T02561008  RH  018%=      5-min Rain = 0
KPD3 092104Z 23009KT 26/M01 A3008 RMK A01 T02551007  RH  018%=      5-min Rain = 0
KPD3 092105Z 22007KT 25/M01 A3008 RMK A01 T02541007  RH  018%=      5-min Rain = 0
KPD3 092106Z 22006KT 25/M01 A3008 RMK A01 T02541008  RH  018%=      5-min Rain = 0
KPD3 092107Z 24008KT 26/M01 A3008 RMK A01 T02551009  RH  018%=      5-min Rain = 0
KPD3 092108Z 23008KT 26/M01 A3008 RMK A01 T02551006  RH  018%=      5-min Rain = 0
KPD3 092109Z 22008KT 26/M01 A3008 RMK A01 T02561006  RH  018%=      5-min Rain = 0
KPD3 092110Z 18009KT 26/M01 A3008 RMK A01 T02571011  RH  017%=      5-min Rain = 0
KPD3 092111Z 21009G14KT 26/M01 A3008 RMK A01 T02571014  RH  017%=      5-min Rain = 0
KPD3 092112Z 18010KT 26/M02 A3008 RMK A01 T02581017  RH  016%=      5-min Rain = 0
KPD3 092113Z 18013KT 26/M02 A3008 RMK A01 T02571023  RH  016%=      5-min Rain = 0
KPD3 092114Z 18012KT 26/M02 A3008 RMK A01 T02561021  RH  016%=      5-min Rain = 0
KPD3 092115Z 18012KT 26/M02 A3008 RMK A01 T02561023  RH  016%=      5-min Rain = 0
KPD3 092116Z 18011KT 26/M02 A3008 RMK A01 T02561019  RH  016%=      5-min Rain = 0
KPD3 092117Z 19011KT 26/M02 A3008 RMK A01 T02551024  RH  016%=      5-min Rain = 0
KPD3 092118Z 19009KT 26/M02 A3008 RMK A01 T02551024  RH  016%=      5-min Rain = 0
KPD3 092119Z 20009KT 26/M02 A3008 RMK A01 T02551024  RH  016%=      5-min Rain = 0
KPD3 092120Z 19009KT 26/M02 A3008 RMK A01 T02551024  RH  016%=      5-min Rain = 0
KPD3 092121Z 19010KT 26/M02 A3008 RMK A01 T02551020  RH  016%=      5-min Rain = 0
KPD3 092122Z 18009KT 26/M02 A3008 RMK A01 T02551022  RH  016%=      5-min Rain = 0
KPD3 092123Z 18009KT 25/M02 A3008 RMK A01 T02541020  RH  016%=      5-min Rain = 0
KPD3 092124Z 18008KT 25/M01 A3008 RMK A01 T02531010  RH  018%=      5-min Rain = 0
KPD3 092125Z 17009KT 25/M01 A3008 RMK A01 T02541011  RH  017%=      5-min Rain = 0
KPD3 092126Z 18010KT 26/M01 A3008 RMK A01 T02551011  RH  017%=      5-min Rain = 0
KPD3 092127Z 20009KT 26/M02 A3008 RMK A01 T02561016  RH  017%=      5-min Rain = 0
KPD3 092128Z 20009KT 26/M02 A3008 RMK A01 T02561017  RH  016%=      5-min Rain = 0
KPD3 092129Z 19009KT 26/M01 A3008 RMK A01 T02561014  RH  017%=      5-min Rain = 0
KPD3 092130Z 20009KT 26/M02 A3008 RMK A01 T02561015  RH  017%=      5-min Rain = 0
KPD3 092131Z 20009KT 26/M01 A3008 RMK A01 T02561014  RH  017%=      5-min Rain = 0
KPD3 092132Z 18011KT 26/M02 A3008 RMK A01 T02561015  RH  017%=      5-min Rain = 0
KPD3 092133Z 18012KT 26/M02 A3008 RMK A01 T02571020  RH  016%=      5-min Rain = 0
KPD3 092134Z 19010KT 26/M02 A3008 RMK A01 T02551024  RH  016%=      5-min Rain = 0
KPD3 092135Z 17008KT 25/M03 A3008 RMK A01 T02541026  RH  016%=      5-min Rain = 0
KPD3 092136Z 18010KT 25/M02 A3008 RMK A01 T02531022  RH  016%=      5-min Rain = 0
KPD3 092137Z 18008KT 26/M02 A3008 RMK A01 T02551020  RH  016%=      5-min Rain = 0
KPD3 092138Z 18008KT 26/M02 A3008 RMK A01 T02551019  RH  016%=      5-min Rain = 0
KPD3 092139Z 18010KT 25/M02 A3007 RMK A01 T02541022  RH  016%=      5-min Rain = 0
KPD3 092140Z 19010KT 25/M02 A3007 RMK A01 T02541015  RH  017%=      5-min Rain = 0
KPD3 092141Z 19009KT 25/M01 A3007 RMK A01 T02531014  RH  017%=      5-min Rain = 0
KPD3 092142Z 19007KT 25/M01 A3007 RMK A01 T02531010  RH  018%=      5-min Rain = 0
KPD3 092143Z 19005KT 25/M01 A3007 RMK A01 T02531007  RH  018%=      5-min Rain = 0
KPD3 092144Z 17007KT 25/M01 A3007 RMK A01 T02541006  RH  018%=      5-min Rain = 0
KPD3 092145Z 18010KT 26/M01 A3007 RMK A01 T02551008  RH  018%=      5-min Rain = 0
KPD3 092146Z 18009KT 26/M01 A3007 RMK A01 T02551007  RH  018%=      5-min Rain = 0
KPD3 092147Z 19010KT 25/M00 A3007 RMK A01 T02541002  RH  019%=      5-min Rain = 0
KPD3 092148Z 19009KT 25/M00 A3007 RMK A01 T02531002  RH  019%=      5-min Rain = 0
KPD3 092149Z 19008KT 25/M00 A3007 RMK A01 T02521002  RH  019%=      5-min Rain = 0
KPD3 092150Z 19008KT 25/M00 A3007 RMK A01 T02521001  RH  019%=      5-min Rain = 0
KPD3 092151Z 19007KT 25/00 A3007 RMK A01 T025300-0  RH  019%=      5-min Rain = 0
KPD3 092152Z 21009KT 25/00 A3007 RMK A01 T02530001  RH  019%=      5-min Rain = 0
KPD3 092153Z 19010KT 25/00 A3007 RMK A01 T02530002  RH  019%=      5-min Rain = 0
KPD3 092154Z 20009KT 25/01 A3007 RMK A01 T02530005  RH  020%=      5-min Rain = 0
KPD3 092155Z 20006KT 25/00 A3007 RMK A01 T02520002  RH  019%=      5-min Rain = 0
KPD3 092156Z 19006KT 25/00 A3007 RMK A01 T02510000  RH  019%=      5-min Rain = 0
KPD3 092157Z 18008KT 25/00 A3007 RMK A01 T02510004  RH  020%=      5-min Rain = 0
KPD3 092158Z 19008KT 25/01 A3007 RMK A01 T02510006  RH  020%=      5-min Rain = 0
KPD3 092159Z 20009KT 25/00 A3007 RMK A01 T02520001  RH  019%=      5-min Rain = 0
KPD3 092200Z 20008KT 25/00 A3007 RMK A01 T02510000  RH  019%=      5-min Rain = 0
KPD3 092201Z 20008KT 25/00 A3007 RMK A01 T025100-0  RH  019%=      5-min Rain = 0
KPD3 092202Z 20007KT 25/M00 A3007 RMK A01 T02511002  RH  019%=      5-min Rain = 0
KPD3 092203Z 20006KT 25/M00 A3007 RMK A01 T02511004  RH  019%=      5-min Rain = 0
KPD3 092204Z 20009KT 25/M00 A3007 RMK A01 T02511001  RH  019%=      5-min Rain = 0
KPD3 092205Z 21008KT 25/M00 A3007 RMK A01 T02511001  RH  019%=      5-min Rain = 0
KPD3 092206Z 21007KT 25/00 A3007 RMK A01 T02510001  RH  019%=      5-min Rain = 0
KPD3 092207Z 20007KT 25/00 A3007 RMK A01 T02500002  RH  020%=      5-min Rain = 0
KPD3 092208Z 19006KT 25/00 A3007 RMK A01 T02500002  RH  020%=      5-min Rain = 0
KPD3 092209Z 18008KT 25/00 A3007 RMK A01 T02510003  RH  020%=      5-min Rain = 0
KPD3 092210Z 19007KT 25/00 A3007 RMK A01 T02500002  RH  020%=      5-min Rain = 0
KPD3 092211Z 18008KT 25/00 A3007 RMK A01 T02490003  RH  020%=      5-min Rain = 0
KPD3 092212Z 18009KT 25/00 A3007 RMK A01 T02490003  RH  020%=      5-min Rain = 0
KPD3 092213Z 18010KT 25/00 A3006 RMK A01 T02490003  RH  020%=      5-min Rain = 0
KPD3 092214Z 18011KT 25/00 A3007 RMK A01 T02480002  RH  020%=      5-min Rain = 0
KPD3 092215Z 19009KT 25/00 A3007 RMK A01 T02470001  RH  020%=      5-min Rain = 0
KPD3 092216Z 18008KT 25/00 A3007 RMK A01 T024700-0  RH  020%=      5-min Rain = 0
KPD3 092217Z 19008KT 25/00 A3007 RMK A01 T02460001  RH  020%=      5-min Rain = 0
KPD3 092218Z 19010KT 25/M00 A3006 RMK A01 T02461001  RH  020%=      5-min Rain = 0
KPD3 092219Z 19009KT 25/M00 A3006 RMK A01 T02461004  RH  019%=      5-min Rain = 0
KPD3 092220Z 19009KT 25/M00 A3006 RMK A01 T02461003  RH  019%=      5-min Rain = 0
KPD3 092221Z 19009KT 25/M01 A3006 RMK A01 T02461006  RH  019%=      5-min Rain = 0
KPD3 092222Z 19009KT 25/M01 A3006 RMK A01 T02461005  RH  019%=      5-min Rain = 0
KPD3 092223Z 19008KT 25/M01 A3006 RMK A01 T02451005  RH  019%=      5-min Rain = 0
KPD3 092224Z 19008KT 25/M00 A3006 RMK A01 T02451001  RH  020%=      5-min Rain = 0
KPD3 092225Z 19008KT 25/00 A3006 RMK A01 T02450001  RH  020%=      5-min Rain = 0
KPD3 092226Z 19007KT 25/00 A3006 RMK A01 T02450002  RH  020%=      5-min Rain = 0
KPD3 092227Z 19008KT 25/00 A3006 RMK A01 T02450003  RH  020%=      5-min Rain = 0
KPD3 092228Z 19008KT 25/00 A3006 RMK A01 T02450004  RH  020%=      5-min Rain = 0
KPD3 092229Z 20009KT 24/00 A3006 RMK A01 T02440003  RH  020%=      5-min Rain = 0
KPD3 092230Z 19009KT 24/01 A3006 RMK A01 T02440005  RH  021%=      5-min Rain = 0
KPD3 092231Z 18008KT 24/01 A3006 RMK A01 T02430006  RH  021%=      5-min Rain = 0
KPD3 092232Z 19008KT 24/01 A3006 RMK A01 T02430007  RH  021%=      5-min Rain = 0
KPD3 092233Z 19006KT 24/01 A3006 RMK A01 T02420007  RH  021%=      5-min Rain = 0
KPD3 092234Z 19007KT 24/01 A3006 RMK A01 T02420008  RH  021%=      5-min Rain = 0
KPD3 092235Z 19007KT 24/01 A3006 RMK A01 T02420012  RH  022%=      5-min Rain = 0
KPD3 092236Z 19007KT 24/01 A3006 RMK A01 T02420010  RH  022%=      5-min Rain = 0
KPD3 092237Z 19008KT 24/01 A3006 RMK A01 T02420009  RH  022%=      5-min Rain = 0
KPD3 092238Z 18008KT 24/01 A3006 RMK A01 T02410007  RH  021%=      5-min Rain = 0
KPD3 092239Z 18008KT 24/01 A3006 RMK A01 T02400007  RH  021%=      5-min Rain = 0
KPD3 092240Z 18008KT 24/01 A3006 RMK A01 T02400006  RH  021%=      5-min Rain = 0
KPD3 092241Z 18007KT 24/01 A3006 RMK A01 T02390006  RH  022%=      5-min Rain = 0
KPD3 092242Z 18008KT 24/01 A3006 RMK A01 T02390007  RH  022%=      5-min Rain = 0
KPD3 092243Z 18007KT 24/01 A3006 RMK A01 T02380009  RH  022%=      5-min Rain = 0
KPD3 092244Z 19007KT 24/01 A3006 RMK A01 T02380012  RH  023%=      5-min Rain = 0
KPD3 092245Z 19007KT 24/01 A3006 RMK A01 T02370012  RH  023%=      5-min Rain = 0
KPD3 092246Z 19007KT 24/01 A3006 RMK A01 T02370011  RH  023%=      5-min Rain = 0
KPD3 092247Z 19007KT 24/01 A3006 RMK A01 T02360010  RH  023%=      5-min Rain = 0
KPD3 092248Z 18008KT 24/01 A3006 RMK A01 T02360011  RH  023%=      5-min Rain = 0
KPD3 092249Z 19008KT 24/01 A3006 RMK A01 T02350011  RH  023%=      5-min Rain = 0
KPD3 092250Z 19008KT 24/01 A3006 RMK A01 T02350011  RH  023%=      5-min Rain = 0
KPD3 092251Z 19007KT 23/01 A3006 RMK A01 T02340012  RH  023%=      5-min Rain = 0
KPD3 092252Z 19008KT 23/01 A3006 RMK A01 T02340012  RH  023%=      5-min Rain = 0
KPD3 092253Z 18008KT 23/01 A3006 RMK A01 T02330014  RH  024%=      5-min Rain = 0
KPD3 092254Z 19007KT 23/01 A3006 RMK A01 T02320014  RH  024%=      5-min Rain = 0
KPD3 092255Z 18007KT 23/02 A3006 RMK A01 T02320016  RH  024%=      5-min Rain = 0
KPD3 092256Z 18006KT 23/02 A3006 RMK A01 T02310017  RH  024%=      5-min Rain = 0
KPD3 092257Z 17006KT 23/02 A3006 RMK A01 T02300018  RH  025%=      5-min Rain = 0
KPD3 092258Z 18007KT 23/02 A3006 RMK A01 T02290019  RH  025%=      5-min Rain = 0
KPD3 092259Z 18006KT 23/02 A3006 RMK A01 T02280020  RH  025%=      5-min Rain = 0
KPD3 092300Z 18006KT 23/02 A3006 RMK A01 T02280022  RH  026%=      5-min Rain = 0
KPD3 092301Z 18007KT 23/02 A3006 RMK A01 T02270022  RH  026%=      5-min Rain = 0
KPD3 092302Z 18006KT 23/02 A3006 RMK A01 T02260023  RH  026%=      5-min Rain = 0
KPD3 092303Z 18006KT 23/02 A3006 RMK A01 T02250024  RH  027%=      5-min Rain = 0
KPD3 092304Z 18006KT 22/02 A3006 RMK A01 T02240024  RH  027%=      5-min Rain = 0
KPD3 092305Z 18006KT 22/02 A3006 RMK A01 T02230024  RH  027%=      5-min Rain = 0
KPD3 092306Z 18006KT 22/03 A3006 RMK A01 T02220025  RH  027%=      5-min Rain = 0
KPD3 092307Z 18006KT 22/03 A3006 RMK A01 T02210025  RH  028%=      5-min Rain = 0
KPD3 092308Z 18006KT 22/03 A3006 RMK A01 T02200025  RH  028%=      5-min Rain = 0
KPD3 092309Z 18006KT 22/03 A3006 RMK A01 T02180026  RH  028%=      5-min Rain = 0
KPD3 092310Z 19006KT 22/03 A3006 RMK A01 T02170026  RH  028%=      5-min Rain = 0
KPD3 092311Z 18006KT 22/03 A3006 RMK A01 T02160026  RH  029%=      5-min Rain = 0
KPD3 092312Z 18006KT 22/03 A3006 RMK A01 T02150026  RH  029%=      5-min Rain = 0
KPD3 092313Z 18006KT 21/03 A3006 RMK A01 T02140026  RH  029%=      5-min Rain = 0
KPD3 092314Z 18006KT 21/03 A3006 RMK A01 T02130026  RH  029%=      5-min Rain = 0
KPD3 092315Z 18006KT 21/03 A3006 RMK A01 T02120026  RH  029%=      5-min Rain = 0
KPD3 092316Z 18007KT 21/03 A3006 RMK A01 T02100026  RH  030%=      5-min Rain = 0
KPD3 092317Z 18006KT 21/03 A3006 RMK A01 T02080026  RH  030%=      5-min Rain = 0
KPD3 092318Z 18006KT 21/03 A3006 RMK A01 T02070026  RH  030%=      5-min Rain = 0
KPD3 092319Z 18006KT 21/03 A3006 RMK A01 T02060026  RH  030%=      5-min Rain = 0
KPD3 092320Z 18006KT 21/03 A3006 RMK A01 T02050026  RH  031%=      5-min Rain = 0
KPD3 092321Z 18006KT 20/03 A3006 RMK A01 T02030026  RH  031%=      5-min Rain = 0
KPD3 092322Z 18006KT 20/03 A3006 RMK A01 T02010025  RH  031%=      5-min Rain = 0
KPD3 092323Z 18006KT 20/03 A3006 RMK A01 T02000026  RH  032%=      5-min Rain = 0
KPD3 092324Z 18006KT 20/03 A3006 RMK A01 T01980026  RH  032%=      5-min Rain = 0
KPD3 092325Z 18006KT 20/03 A3006 RMK A01 T01960025  RH  032%=      5-min Rain = 0
KPD3 092326Z 18006KT 19/03 A3006 RMK A01 T01940025  RH  033%=      5-min Rain = 0
KPD3 092327Z 18005KT 19/03 A3006 RMK A01 T01920025  RH  033%=      5-min Rain = 0
KPD3 092328Z 18006KT 19/03 A3006 RMK A01 T01900025  RH  033%=      5-min Rain = 0
KPD3 092329Z 18006KT 19/03 A3006 RMK A01 T01880025  RH  034%=      5-min Rain = 0
KPD3 092330Z 18006KT 19/03 A3006 RMK A01 T01860025  RH  034%=      5-min Rain = 0
KPD3 092331Z 18006KT 18/02 A3006 RMK A01 T01840024  RH  034%=      5-min Rain = 0
KPD3 092332Z 18006KT 18/02 A3006 RMK A01 T01830024  RH  035%=      5-min Rain = 0
KPD3 092333Z 18006KT 18/03 A3006 RMK A01 T01820025  RH  035%=      5-min Rain = 0
KPD3 092334Z 18007KT 18/03 A3006 RMK A01 T01800025  RH  035%=      5-min Rain = 0
KPD3 092335Z 18007KT 18/02 A3006 RMK A01 T01790024  RH  036%=      5-min Rain = 0
KPD3 092336Z 18007KT 18/03 A3006 RMK A01 T01770025  RH  036%=      5-min Rain = 0
KPD3 092337Z 18007KT 18/02 A3006 RMK A01 T01760024  RH  036%=      5-min Rain = 0
KPD3 092338Z 18007KT 17/03 A3006 RMK A01 T01740025  RH  037%=      5-min Rain = 0
KPD3 092339Z 18007KT 17/03 A3006 RMK A01 T01730025  RH  037%=      5-min Rain = 0
KPD3 092340Z 18006KT 17/03 A3006 RMK A01 T01720025  RH  037%=      5-min Rain = 0
KPD3 092341Z 18007KT 17/03 A3006 RMK A01 T01710025  RH  038%=      5-min Rain = 0
KPD3 092342Z 19007KT 17/03 A3006 RMK A01 T01700025  RH  038%=      5-min Rain = 0
KPD3 092343Z 19007KT 17/03 A3006 RMK A01 T01700026  RH  038%=      5-min Rain = 0
KPD3 092344Z 19007KT 17/03 A3006 RMK A01 T01700026  RH  038%=      5-min Rain = 0
KPD3 092345Z 19006KT 17/03 A3006 RMK A01 T01690026  RH  038%=      5-min Rain = 0
KPD3 092346Z 19006KT 17/03 A3006 RMK A01 T01670025  RH  038%=      5-min Rain = 0
KPD3 092347Z 19006KT 17/03 A3006 RMK A01 T01660025  RH  039%=      5-min Rain = 0
KPD3 092348Z 19006KT 16/02 A3006 RMK A01 T01630024  RH  039%=      5-min Rain = 0
KPD3 092349Z 19006KT 16/02 A3006 RMK A01 T01610023  RH  039%=      5-min Rain = 0
KPD3 092350Z 19007KT 16/02 A3006 RMK A01 T01570022  RH  040%=      5-min Rain = 0
KPD3 092351Z 19007KT 15/02 A3006 RMK A01 T01540023  RH  041%=      5-min Rain = 0
KPD3 092352Z 19006KT 15/02 A3006 RMK A01 T01530023  RH  041%=      5-min Rain = 0
KPD3 092353Z 19006KT 15/02 A3006 RMK A01 T01520023  RH  042%=      5-min Rain = 0
KPD3 092354Z 19006KT 15/02 A3006 RMK A01 T01520023  RH  042%=      5-min Rain = 0
KPD3 092355Z 19006KT 15/02 A3006 RMK A01 T01510022  RH  042%=      5-min Rain = 0
KPD3 092356Z 19006KT 15/02 A3006 RMK A01 T01480021  RH  042%=      5-min Rain = 0
KPD3 092357Z 19006KT 15/02 A3006 RMK A01 T01450021  RH  043%=      5-min Rain = 0
KPD3 092358Z 19006KT 14/02 A3006 RMK A01 T01430023  RH  044%=      5-min Rain = 0
KPD3 092359Z 19006KT 15/02 A3006 RMK A01 T01460024  RH  044%=      5-min Rain = 0
KPD3 100000Z 19006KT 15/02 A3006 RMK A01 T01470023  RH  043%=      5-min Rain = 0
KPD3 100001Z 19006KT 15/02 A3006 RMK A01 T01450022  RH  043%=      5-min Rain = 0
KPD3 100002Z 19006KT 14/02 A3006 RMK A01 T01430023  RH  044%=      5-min Rain = 0
KPD3 100003Z 20006KT 14/02 A3006 RMK A01 T01430023  RH  044%=      5-min Rain = 0
KPD3 100004Z 20006KT 14/02 A3006 RMK A01 T01430023  RH  044%=      5-min Rain = 0
KPD3 100005Z 20005KT 14/02 A3006 RMK A01 T01400022  RH  045%=      5-min Rain = 0
KPD3 100006Z 19006KT 14/02 A3006 RMK A01 T01370023  RH  046%=      5-min Rain = 0
KPD3 100007Z 19006KT 14/02 A3006 RMK A01 T01350023  RH  047%=      5-min Rain = 0
KPD3 100008Z 20006KT 13/02 A3006 RMK A01 T01330024  RH  047%=      5-min Rain = 0
KPD3 100009Z 20006KT 13/02 A3006 RMK A01 T01320023  RH  048%=      5-min Rain = 0
KPD3 100010Z 20006KT 13/02 A3006 RMK A01 T01300023  RH  048%=      5-min Rain = 0
KPD3 100011Z 20006KT 13/02 A3006 RMK A01 T01280023  RH  049%=      5-min Rain = 0
KPD3 100012Z 20006KT 13/02 A3006 RMK A01 T01250022  RH  049%=      5-min Rain = 0
KPD3 100013Z 20006KT 12/02 A3006 RMK A01 T01230022  RH  050%=      5-min Rain = 0
KPD3 100014Z 20006KT 12/02 A3006 RMK A01 T01210022  RH  051%=      5-min Rain = 0
KPD3 100015Z 21006KT 12/02 A3006 RMK A01 T01200022  RH  051%=      5-min Rain = 0
KPD3 100016Z 21006KT 12/02 A3006 RMK A01 T01180022  RH  052%=      5-min Rain = 0
KPD3 100017Z 21006KT 12/02 A3006 RMK A01 T01170022  RH  052%=      5-min Rain = 0
KPD3 100018Z 20006KT 12/02 A3006 RMK A01 T01170022  RH  052%=      5-min Rain = 0
KPD3 100019Z 21006KT 12/02 A3006 RMK A01 T01160023  RH  053%=      5-min Rain = 0
KPD3 100020Z 21006KT 12/02 A3006 RMK A01 T01150023  RH  053%=      5-min Rain = 0
KPD3 100021Z 21006KT 11/02 A3006 RMK A01 T01140023  RH  053%=      5-min Rain = 0
KPD3 100022Z 21005KT 11/02 A3006 RMK A01 T01140023  RH  053%=      5-min Rain = 0
KPD3 100023Z 21005KT 11/02 A3006 RMK A01 T01140023  RH  054%=      5-min Rain = 0
KPD3 100024Z 22005KT 11/02 A3006 RMK A01 T01140023  RH  054%=      5-min Rain = 0
KPD3 100025Z 22005KT 11/02 A3006 RMK A01 T01140023  RH  054%=      5-min Rain = 0
KPD3 100026Z 22005KT 11/02 A3006 RMK A01 T01140022  RH  053%=      5-min Rain = 0
KPD3 100027Z 22005KT 11/02 A3006 RMK A01 T01130022  RH  053%=      5-min Rain = 0
KPD3 100028Z 22005KT 11/02 A3006 RMK A01 T01120022  RH  054%=      5-min Rain = 0
KPD3 100029Z 22005KT 11/02 A3006 RMK A01 T01110020  RH  054%=      5-min Rain = 0
KPD3 100030Z 22005KT 11/02 A3006 RMK A01 T01090020  RH  054%=      5-min Rain = 0
KPD3 100031Z 23005KT 11/02 A3006 RMK A01 T01100021  RH  054%=      5-min Rain = 0
KPD3 100032Z 23006KT 11/02 A3006 RMK A01 T01090021  RH  054%=      5-min Rain = 0
KPD3 100033Z 22006KT 11/02 A3006 RMK A01 T01100021  RH  054%=      5-min Rain = 0
KPD3 100034Z 23006KT 11/02 A3006 RMK A01 T01110022  RH  054%=      5-min Rain = 0
KPD3 100035Z 23006KT 11/02 A3006 RMK A01 T01120022  RH  054%=      5-min Rain = 0
KPD3 100036Z 23006KT 11/02 A3006 RMK A01 T01110022  RH  054%=      5-min Rain = 0
KPD3 100037Z 23006KT 11/02 A3006 RMK A01 T01110021  RH  054%=      5-min Rain = 0
KPD3 100038Z 23006KT 11/02 A3006 RMK A01 T01100021  RH  054%=      5-min Rain = 0
KPD3 100039Z 22006KT 11/02 A3006 RMK A01 T01110020  RH  053%=      5-min Rain = 0
KPD3 100040Z 23006KT 11/02 A3006 RMK A01 T01130021  RH  053%=      5-min Rain = 0
KPD3 100041Z 23006KT 11/02 A3006 RMK A01 T01140021  RH  053%=      5-min Rain = 0
KPD3 100042Z 23006KT 11/02 A3006 RMK A01 T01130020  RH  053%=      5-min Rain = 0
KPD3 100043Z 23006KT 11/02 A3006 RMK A01 T01120020  RH  053%=      5-min Rain = 0
KPD3 100044Z 23006KT 11/02 A3006 RMK A01 T01110020  RH  053%=      5-min Rain = 0
KPD3 100045Z 23006KT 11/02 A3006 RMK A01 T01100020  RH  054%=      5-min Rain = 0
KPD3 100046Z 24007KT 11/02 A3006 RMK A01 T01090020  RH  054%=      5-min Rain = 0
KPD3 100047Z 23007KT 11/02 A3006 RMK A01 T01080021  RH  055%=      5-min Rain = 0
KPD3 100048Z 23006KT 11/02 A3006 RMK A01 T01080021  RH  055%=      5-min Rain = 0
KPD3 100049Z 23006KT 11/02 A3006 RMK A01 T01080021  RH  055%=      5-min Rain = 0
KPD3 100050Z 23006KT 11/02 A3006 RMK A01 T01060020  RH  055%=      5-min Rain = 0
KPD3 100051Z 23006KT 11/02 A3006 RMK A01 T01050020  RH  055%=      5-min Rain = 0
KPD3 100052Z 23006KT 10/02 A3007 RMK A01 T01040020  RH  056%=      5-min Rain = 0
KPD3 100053Z 23006KT 10/02 A3006 RMK A01 T01040020  RH  056%=      5-min Rain = 0
KPD3 100054Z 23006KT 10/02 A3006 RMK A01 T01030020  RH  056%=      5-min Rain = 0
KPD3 100055Z 23006KT 10/02 A3007 RMK A01 T01020020  RH  057%=      5-min Rain = 0
KPD3 100056Z 23006KT 10/02 A3007 RMK A01 T01020020  RH  057%=      5-min Rain = 0
KPD3 100057Z 23006KT 10/02 A3007 RMK A01 T01010020  RH  057%=      5-min Rain = 0
KPD3 100058Z 23007KT 10/02 A3007 RMK A01 T01010020  RH  057%=      5-min Rain = 0
KPD3 100059Z 23007KT 10/02 A3007 RMK A01 T01010019  RH  057%=      5-min Rain = 0
KPD3 100100Z 24006KT 10/02 A3007 RMK A01 T01000019  RH  057%=      5-min Rain = 0
KPD3 100101Z 23007KT 10/02 A3007 RMK A01 T00990019  RH  057%=      5-min Rain = 0
KPD3 100102Z 24007KT 10/02 A3007 RMK A01 T00990018  RH  057%=      5-min Rain = 0
KPD3 100103Z 24006KT 10/02 A3007 RMK A01 T00980018  RH  057%=      5-min Rain = 0
KPD3 100104Z 24006KT 10/02 A3007 RMK A01 T00990018  RH  057%=      5-min Rain = 0
KPD3 100105Z 24006KT 10/02 A3007 RMK A01 T01000018  RH  057%=      5-min Rain = 0
KPD3 100106Z 25006KT 10/02 A3007 RMK A01 T01000018  RH  057%=      5-min Rain = 0
KPD3 100107Z 25006KT 10/02 A3007 RMK A01 T01010018  RH  056%=      5-min Rain = 0
KPD3 100108Z 25006KT 10/02 A3007 RMK A01 T01010017  RH  056%=      5-min Rain = 0
KPD3 100109Z 26006KT 10/02 A3007 RMK A01 T01020017  RH  056%=      5-min Rain = 0
KPD3 100110Z 25006KT 10/02 A3007 RMK A01 T01020017  RH  055%=      5-min Rain = 0
KPD3 100116Z 26007KT 10/02 A3007 RMK A01 T00980015  RH  056%=      5-min Rain = 0
KPD3 100117Z 26007KT 10/02 A3007 RMK A01 T00970015  RH  057%=      5-min Rain = 0
KPD3 100118Z 26007KT 10/02 A3007 RMK A01 T00950015  RH  057%=      5-min Rain = 0
KPD3 100119Z 26007KT 10/02 A3007 RMK A01 T00950015  RH  057%=      5-min Rain = 0
KPD3 100120Z 26007KT 10/01 A3007 RMK A01 T00950014  RH  057%=      5-min Rain = 0
KPD3 100121Z 25007KT 10/01 A3007 RMK A01 T00950014  RH  057%=      5-min Rain = 0
KPD3 100122Z 25007KT 10/01 A3007 RMK A01 T00950014  RH  057%=      5-min Rain = 0
KPD3 100123Z 25006KT 10/01 A3007 RMK A01 T00950014  RH  057%=      5-min Rain = 0
KPD3 100124Z 25006KT 09/01 A3007 RMK A01 T00940014  RH  057%=      5-min Rain = 0
KPD3 100125Z 25007KT 09/01 A3007 RMK A01 T00940014  RH  058%=      5-min Rain = 0
KPD3 100126Z 25007KT 09/01 A3007 RMK A01 T00930014  RH  057%=      5-min Rain = 0
KPD3 100127Z 25007KT 09/01 A3007 RMK A01 T00930014  RH  058%=      5-min Rain = 0
KPD3 100128Z 25006KT 09/01 A3007 RMK A01 T00920014  RH  058%=      5-min Rain = 0
KPD3 100129Z 26007KT 09/01 A3007 RMK A01 T00910013  RH  058%=      5-min Rain = 0
KPD3 100130Z 26007KT 09/01 A3007 RMK A01 T00910013  RH  058%=      5-min Rain = 0
KPD3 100131Z 25007KT 09/01 A3007 RMK A01 T00900013  RH  059%=      5-min Rain = 0
KPD3 100132Z 25007KT 09/01 A3007 RMK A01 T00890013  RH  059%=      5-min Rain = 0
KPD3 100133Z 25007KT 09/01 A3007 RMK A01 T00870012  RH  059%=      5-min Rain = 0
KPD3 100134Z 25007KT 09/01 A3007 RMK A01 T00860012  RH  059%=      5-min Rain = 0
KPD3 100135Z 25007KT 09/01 A3007 RMK A01 T00860012  RH  060%=      5-min Rain = 0
KPD3 100136Z 25007KT 09/01 A3007 RMK A01 T00850013  RH  060%=      5-min Rain = 0
KPD3 100137Z 25007KT 09/01 A3007 RMK A01 T00860014  RH  060%=      5-min Rain = 0
KPD3 100138Z 25007KT 09/01 A3007 RMK A01 T00860013  RH  060%=      5-min Rain = 0
KPD3 100139Z 25007KT 09/01 A3007 RMK A01 T00860013  RH  060%=      5-min Rain = 0
KPD3 100140Z 25007KT 09/01 A3007 RMK A01 T00850012  RH  060%=      5-min Rain = 0
KPD3 100141Z 25006KT 09/01 A3007 RMK A01 T00850013  RH  060%=      5-min Rain = 0
KPD3 100142Z 25006KT 08/01 A3007 RMK A01 T00840013  RH  061%=      5-min Rain = 0
KPD3 100143Z 25006KT 08/01 A3007 RMK A01 T00830013  RH  061%=      5-min Rain = 0
KPD3 100144Z 25005KT 08/01 A3007 RMK A01 T00830013  RH  062%=      5-min Rain = 0
KPD3 100145Z 25005KT 08/01 A3007 RMK A01 T00830014  RH  062%=      5-min Rain = 0
KPD3 100146Z 25005KT 08/01 A3007 RMK A01 T00820014  RH  062%=      5-min Rain = 0
KPD3 100147Z 24004KT 08/01 A3007 RMK A01 T00810013  RH  062%=      5-min Rain = 0
KPD3 100148Z 24005KT 08/01 A3007 RMK A01 T00810013  RH  062%=      5-min Rain = 0
KPD3 100149Z 24005KT 08/01 A3007 RMK A01 T00810012  RH  062%=      5-min Rain = 0
KPD3 100150Z 24005KT 08/01 A3007 RMK A01 T00830012  RH  061%=      5-min Rain = 0
KPD3 100151Z 24004KT 09/01 A3007 RMK A01 T00860012  RH  060%=      5-min Rain = 0
KPD3 100152Z 24004KT 09/01 A3007 RMK A01 T00890012  RH  058%=      5-min Rain = 0
KPD3 100153Z 25004KT 09/01 A3007 RMK A01 T00910012  RH  058%=      5-min Rain = 0
KPD3 100154Z 25005KT 09/01 A3007 RMK A01 T00910011  RH  058%=      5-min Rain = 0
KPD3 100155Z 24005KT 09/01 A3007 RMK A01 T00920012  RH  057%=      5-min Rain = 0
KPD3 100156Z 24005KT 09/01 A3007 RMK A01 T00920011  RH  057%=      5-min Rain = 0
KPD3 100157Z 24005KT 10/01 A3007 RMK A01 T00950011  RH  056%=      5-min Rain = 0
KPD3 100158Z 25005KT 10/01 A3007 RMK A01 T00980011  RH  055%=      5-min Rain = 0
KPD3 100159Z 24005KT 10/01 A3007 RMK A01 T00980010  RH  054%=      5-min Rain = 0
KPD3 100200Z 25006KT 10/01 A3007 RMK A01 T00980011  RH  054%=      5-min Rain = 0
KPD3 100201Z 25006KT 10/01 A3007 RMK A01 T00960010  RH  055%=      5-min Rain = 0
KPD3 100202Z 24006KT 09/01 A3007 RMK A01 T00930010  RH  056%=      5-min Rain = 0
KPD3 100203Z 24006KT 09/01 A3007 RMK A01 T00920010  RH  057%=      5-min Rain = 0
KPD3 100204Z 24006KT 09/01 A3007 RMK A01 T00910010  RH  057%=      5-min Rain = 0
KPD3 100205Z 24006KT 09/01 A3007 RMK A01 T00890010  RH  057%=      5-min Rain = 0
KPD3 100206Z 24006KT 09/01 A3007 RMK A01 T00880009  RH  058%=      5-min Rain = 0
KPD3 100207Z 24006KT 09/01 A3007 RMK A01 T00860009  RH  059%=      5-min Rain = 0
KPD3 100208Z 24006KT 08/01 A3007 RMK A01 T00830009  RH  060%=      5-min Rain = 0
KPD3 100209Z 24006KT 08/01 A3007 RMK A01 T00810010  RH  061%=      5-min Rain = 0
KPD3 100210Z 24006KT 08/01 A3007 RMK A01 T00790010  RH  062%=      5-min Rain = 0
KPD3 100211Z 25006KT 08/01 A3007 RMK A01 T00780010  RH  062%=      5-min Rain = 0
KPD3 100212Z 25006KT 08/01 A3007 RMK A01 T00770009  RH  062%=      5-min Rain = 0
KPD3 100213Z 25006KT 08/01 A3007 RMK A01 T00760010  RH  063%=      5-min Rain = 0
KPD3 100214Z 25007KT 07/01 A3007 RMK A01 T00740010  RH  064%=      5-min Rain = 0
KPD3 100215Z 25007KT 07/01 A3007 RMK A01 T00730010  RH  064%=      5-min Rain = 0
KPD3 100216Z 25007KT 07/01 A3007 RMK A01 T00730010  RH  064%=      5-min Rain = 0
KPD3 100217Z 25007KT 07/01 A3007 RMK A01 T00730011  RH  065%=      5-min Rain = 0
KPD3 100218Z 25007KT 07/01 A3007 RMK A01 T00730011  RH  065%=      5-min Rain = 0
KPD3 100219Z 25006KT 07/01 A3007 RMK A01 T00730011  RH  065%=      5-min Rain = 0
KPD3 100220Z 25007KT 07/01 A3007 RMK A01 T00740012  RH  065%=      5-min Rain = 0
KPD3 100221Z 25007KT 08/01 A3007 RMK A01 T00760012  RH  064%=      5-min Rain = 0
KPD3 100222Z 25007KT 08/01 A3007 RMK A01 T00770013  RH  064%=      5-min Rain = 0
KPD3 100223Z 25007KT 08/01 A3007 RMK A01 T00790013  RH  063%=      5-min Rain = 0
KPD3 100224Z 25006KT 08/01 A3007 RMK A01 T00790012  RH  063%=      5-min Rain = 0
KPD3 100225Z 25007KT 08/01 A3007 RMK A01 T00790012  RH  062%=      5-min Rain = 0
KPD3 100226Z 26007KT 08/01 A3007 RMK A01 T00790012  RH  063%=      5-min Rain = 0
KPD3 100227Z 25007KT 08/01 A3007 RMK A01 T00770012  RH  063%=      5-min Rain = 0
KPD3 100228Z 26007KT 08/01 A3007 RMK A01 T00760012  RH  064%=      5-min Rain = 0
KPD3 100229Z 26007KT 08/01 A3007 RMK A01 T00750012  RH  064%=      5-min Rain = 0
KPD3 100230Z 26007KT 08/01 A3007 RMK A01 T00750012  RH  064%=      5-min Rain = 0
KPD3 100231Z 26007KT 08/01 A3007 RMK A01 T00760012  RH  064%=      5-min Rain = 0
KPD3 100232Z 26007KT 08/01 A3007 RMK A01 T00770012  RH  064%=      5-min Rain = 0
KPD3 100233Z 25007KT 08/01 A3007 RMK A01 T00770012  RH  064%=      5-min Rain = 0
KPD3 100234Z 25007KT 08/01 A3007 RMK A01 T00770012  RH  064%=      5-min Rain = 0
KPD3 100235Z 25007KT 08/01 A3007 RMK A01 T00770013  RH  064%=      5-min Rain = 0
KPD3 100236Z 25007KT 08/01 A3007 RMK A01 T00770013  RH  064%=      5-min Rain = 0
KPD3 100237Z 25006KT 08/01 A3007 RMK A01 T00780013  RH  063%=      5-min Rain = 0
KPD3 100238Z 25006KT 08/01 A3007 RMK A01 T00790012  RH  063%=      5-min Rain = 0
KPD3 100239Z 25006KT 08/01 A3007 RMK A01 T00800012  RH  062%=      5-min Rain = 0
KPD3 100240Z 26007KT 08/01 A3007 RMK A01 T00790012  RH  063%=      5-min Rain = 0
KPD3 100241Z 26007KT 08/01 A3007 RMK A01 T00790013  RH  063%=      5-min Rain = 0
KPD3 100242Z 26007KT 08/01 A3007 RMK A01 T00790012  RH  063%=      5-min Rain = 0
KPD3 100243Z 26007KT 08/01 A3007 RMK A01 T00790013  RH  063%=      5-min Rain = 0
KPD3 100244Z 26007KT 08/01 A3007 RMK A01 T00790013  RH  063%=      5-min Rain = 0
KPD3 100245Z 26007KT 08/01 A3007 RMK A01 T00780013  RH  063%=      5-min Rain = 0
KPD3 100246Z 26007KT 08/01 A3007 RMK A01 T00770013  RH  064%=      5-min Rain = 0
KPD3 100247Z 26007KT 08/01 A3007 RMK A01 T00760013  RH  064%=      5-min Rain = 0
KPD3 100248Z 25007KT 08/01 A3007 RMK A01 T00760012  RH  064%=      5-min Rain = 0
KPD3 100249Z 25007KT 08/01 A3007 RMK A01 T00750013  RH  065%=      5-min Rain = 0
KPD3 100250Z 25008KT 07/01 A3007 RMK A01 T00740012  RH  065%=      5-min Rain = 0
KPD3 100251Z 25008KT 07/01 A3007 RMK A01 T00730012  RH  065%=      5-min Rain = 0
KPD3 100252Z 25008KT 07/01 A3007 RMK A01 T00740013  RH  065%=      5-min Rain = 0
KPD3 100253Z 25008KT 07/01 A3007 RMK A01 T00730013  RH  066%=      5-min Rain = 0
KPD3 100254Z 24008KT 07/01 A3007 RMK A01 T00740014  RH  066%=      5-min Rain = 0
KPD3 100255Z 24008KT 07/02 A3007 RMK A01 T00740015  RH  066%=      5-min Rain = 0
KPD3 100256Z 24008KT 07/02 A3007 RMK A01 T00740015  RH  066%=      5-min Rain = 0
KPD3 100257Z 23007KT 07/02 A3007 RMK A01 T00740015  RH  066%=      5-min Rain = 0
KPD3 100258Z 24007KT 08/02 A3007 RMK A01 T00750015  RH  066%=      5-min Rain = 0
KPD3 100259Z 24007KT 08/02 A3007 RMK A01 T00750016  RH  066%=      5-min Rain = 0
KPD3 100300Z 24007KT 08/02 A3007 RMK A01 T00750016  RH  066%=      5-min Rain = 0
KPD3 100301Z 24007KT 08/02 A3007 RMK A01 T00750016  RH  066%=      5-min Rain = 0
KPD3 100302Z 24008KT 08/02 A3007 RMK A01 T00750015  RH  066%=      5-min Rain = 0
KPD3 100303Z 24008KT 07/02 A3007 RMK A01 T00740016  RH  066%=      5-min Rain = 0
KPD3 100304Z 24008KT 07/02 A3007 RMK A01 T00720015  RH  067%=      5-min Rain = 0
KPD3 100305Z 24008KT 07/02 A3007 RMK A01 T00710015  RH  068%=      5-min Rain = 0
KPD3 100306Z 24008KT 07/02 A3007 RMK A01 T00710016  RH  068%=      5-min Rain = 0
KPD3 100307Z 24008KT 07/02 A3007 RMK A01 T00710016  RH  068%=      5-min Rain = 0
KPD3 100308Z 24008KT 07/02 A3007 RMK A01 T00720016  RH  067%=      5-min Rain = 0
KPD3 100309Z 24007KT 07/02 A3007 RMK A01 T00740017  RH  067%=      5-min Rain = 0
KPD3 100310Z 24007KT 08/02 A3007 RMK A01 T00760017  RH  066%=      5-min Rain = 0
KPD3 100311Z 24007KT 08/02 A3007 RMK A01 T00770017  RH  066%=      5-min Rain = 0
KPD3 100312Z 24006KT 08/02 A3007 RMK A01 T00770016  RH  066%=      5-min Rain = 0
KPD3 100313Z 24006KT 08/02 A3007 RMK A01 T00770016  RH  065%=      5-min Rain = 0
KPD3 100314Z 24006KT 08/02 A3007 RMK A01 T00770016  RH  065%=      5-min Rain = 0
KPD3 100315Z 24006KT 08/02 A3007 RMK A01 T00770016  RH  065%=      5-min Rain = 0
KPD3 100316Z 24005KT 08/02 A3007 RMK A01 T00770015  RH  065%=      5-min Rain = 0
KPD3 100317Z 25005KT 08/02 A3007 RMK A01 T00770015  RH  065%=      5-min Rain = 0
KPD3 100318Z 25005KT 08/02 A3007 RMK A01 T00780015  RH  065%=      5-min Rain = 0
KPD3 100319Z 25005KT 08/02 A3007 RMK A01 T00770015  RH  065%=      5-min Rain = 0
KPD3 100320Z 26005KT 08/02 A3007 RMK A01 T00770015  RH  065%=      5-min Rain = 0
KPD3 100321Z 26005KT 08/02 A3007 RMK A01 T00770015  RH  065%=      5-min Rain = 0
KPD3 100322Z 26005KT 08/02 A3007 RMK A01 T00770015  RH  064%=      5-min Rain = 0
KPD3 100323Z 26005KT 08/02 A3007 RMK A01 T00780015  RH  064%=      5-min Rain = 0
KPD3 100324Z 26005KT 08/02 A3007 RMK A01 T00780015  RH  064%=      5-min Rain = 0
KPD3 100325Z 26005KT 08/01 A3007 RMK A01 T00780014  RH  064%=      5-min Rain = 0
KPD3 100326Z 26005KT 08/01 A3007 RMK A01 T00790014  RH  064%=      5-min Rain = 0
KPD3 100327Z 25004KT 08/01 A3007 RMK A01 T00800014  RH  063%=      5-min Rain = 0
KPD3 100328Z 25004KT 08/01 A3007 RMK A01 T00800014  RH  063%=      5-min Rain = 0
KPD3 100329Z 25004KT 08/01 A3007 RMK A01 T00810013  RH  063%=      5-min Rain = 0
KPD3 100330Z 24004KT 08/01 A3007 RMK A01 T00820014  RH  062%=      5-min Rain = 0
KPD3 100331Z 24004KT 09/02 A3007 RMK A01 T00860017  RH  062%=      5-min Rain = 0
KPD3 100332Z 26004KT 09/02 A3007 RMK A01 T00920018  RH  060%=      5-min Rain = 0
KPD3 100333Z 25004KT 10/02 A3007 RMK A01 T00980019  RH  058%=      5-min Rain = 0
KPD3 100334Z 26004KT 10/02 A3007 RMK A01 T01040020  RH  056%=      5-min Rain = 0
KPD3 100335Z 26003KT 11/02 A3007 RMK A01 T01080019  RH  054%=      5-min Rain = 0
KPD3 100336Z 26003KT 11/02 A3007 RMK A01 T01110019  RH  053%=      5-min Rain = 0
KPD3 100337Z 26003KT 11/02 A3007 RMK A01 T01130019  RH  052%=      5-min Rain = 0
KPD3 100338Z 28003KT 11/02 A3007 RMK A01 T01130018  RH  052%=      5-min Rain = 0
KPD3 100339Z 26003KT 11/02 A3007 RMK A01 T01110016  RH  052%=      5-min Rain = 0
KPD3 100340Z 27003KT 11/02 A3007 RMK A01 T01100017  RH  053%=      5-min Rain = 0
KPD3 100341Z 27003KT 11/02 A3007 RMK A01 T01100017  RH  053%=      5-min Rain = 0
KPD3 100342Z 26004KT 11/02 A3007 RMK A01 T01100018  RH  053%=      5-min Rain = 0
KPD3 100343Z 26004KT 11/02 A3007 RMK A01 T01100018  RH  053%=      5-min Rain = 0
KPD3 100344Z 26004KT 11/02 A3007 RMK A01 T01110019  RH  053%=      5-min Rain = 0
KPD3 100345Z 27005KT 11/02 A3007 RMK A01 T01110019  RH  053%=      5-min Rain = 0
KPD3 100346Z 26005KT 11/02 A3007 RMK A01 T01120020  RH  053%=      5-min Rain = 0
KPD3 100347Z 26005KT 11/02 A3007 RMK A01 T01120020  RH  053%=      5-min Rain = 0
KPD3 100348Z 26004KT 11/02 A3007 RMK A01 T01120020  RH  053%=      5-min Rain = 0
KPD3 100349Z 26004KT 11/02 A3007 RMK A01 T01130020  RH  053%=      5-min Rain = 0
KPD3 100350Z 25004KT 11/02 A3007 RMK A01 T01140021  RH  053%=      5-min Rain = 0
KPD3 100351Z 25004KT 11/02 A3007 RMK A01 T01140021  RH  053%=      5-min Rain = 0
KPD3 100352Z 25004KT 11/02 A3007 RMK A01 T01140021  RH  053%=      5-min Rain = 0
KPD3 100353Z 25004KT 11/02 A3007 RMK A01 T01130020  RH  053%=      5-min Rain = 0
KPD3 100354Z 26005KT 11/02 A3007 RMK A01 T01110020  RH  053%=      5-min Rain = 0
KPD3 100355Z 26005KT 11/02 A3007 RMK A01 T01090020  RH  054%=      5-min Rain = 0
KPD3 100356Z 27005KT 11/02 A3007 RMK A01 T01060018  RH  055%=      5-min Rain = 0
KPD3 100357Z 27007KT 10/02 A3007 RMK A01 T01020017  RH  056%=      5-min Rain = 0
KPD3 100358Z 27008KT 10/02 A3007 RMK A01 T00980016  RH  057%=      5-min Rain = 0
KPD3 100359Z 26008KT 09/01 A3007 RMK A01 T00920014  RH  058%=      5-min Rain = 0
KPD3 100400Z 26008KT 09/01 A3007 RMK A01 T00860014  RH  060%=      5-min Rain = 0
KPD3 100401Z 26008KT 08/01 A3007 RMK A01 T00810013  RH  062%=      5-min Rain = 0
KPD3 100402Z 26008KT 08/02 A3007 RMK A01 T00760015  RH  065%=      5-min Rain = 0
KPD3 100403Z 27008KT 07/02 A3007 RMK A01 T00740018  RH  068%=      5-min Rain = 0
KPD3 100404Z 26008KT 07/02 A3007 RMK A01 T00720020  RH  070%=      5-min Rain = 0
KPD3 100405Z 27007KT 07/02 A3007 RMK A01 T00710021  RH  071%=      5-min Rain = 0
KPD3 100406Z 27008KT 07/02 A3007 RMK A01 T00700022  RH  072%=      5-min Rain = 0
KPD3 100407Z 26008KT 07/02 A3007 RMK A01 T00700024  RH  072%=      5-min Rain = 0
KPD3 100408Z 26009KT 07/02 A3007 RMK A01 T00700024  RH  073%=      5-min Rain = 0
KPD3 100409Z 26009KT 07/03 A3007 RMK A01 T00700025  RH  073%=      5-min Rain = 0
KPD3 100410Z 27009KT 07/03 A3007 RMK A01 T00700025  RH  073%=      5-min Rain = 0
KPD3 100411Z 27009KT 07/03 A3007 RMK A01 T00700026  RH  073%=      5-min Rain = 0
KPD3 100412Z 27009KT 07/03 A3007 RMK A01 T00700027  RH  074%=      5-min Rain = 0
KPD3 100413Z 27009KT 07/03 A3007 RMK A01 T00700028  RH  075%=      5-min Rain = 0
KPD3 100414Z 26009KT 07/03 A3007 RMK A01 T00700029  RH  075%=      5-min Rain = 0
KPD3 100415Z 26009KT 07/03 A3007 RMK A01 T00720031  RH  075%=      5-min Rain = 0
KPD3 100416Z 26009KT 07/03 A3007 RMK A01 T00740032  RH  075%=      5-min Rain = 0
KPD3 100417Z 26009KT 08/03 A3007 RMK A01 T00760033  RH  074%=      5-min Rain = 0
KPD3 100418Z 26009KT 08/03 A3007 RMK A01 T00780034  RH  073%=      5-min Rain = 0
KPD3 100419Z 26009KT 08/03 A3007 RMK A01 T00800034  RH  073%=      5-min Rain = 0
KPD3 100420Z 26009KT 08/03 A3007 RMK A01 T00820034  RH  072%=      5-min Rain = 0
KPD3 100421Z 26009KT 08/03 A3008 RMK A01 T00830034  RH  071%=      5-min Rain = 0
KPD3 100422Z 26008KT 08/03 A3008 RMK A01 T00830033  RH  071%=      5-min Rain = 0
KPD3 100423Z 25008KT 08/03 A3008 RMK A01 T00840033  RH  071%=      5-min Rain = 0
KPD3 100424Z 25008KT 08/03 A3008 RMK A01 T00840033  RH  070%=      5-min Rain = 0
KPD3 100425Z 25007KT 08/03 A3008 RMK A01 T00840032  RH  070%=      5-min Rain = 0
KPD3 100426Z 25007KT 08/03 A3008 RMK A01 T00840032  RH  070%=      5-min Rain = 0
KPD3 100427Z 25007KT 08/03 A3008 RMK A01 T00840031  RH  069%=      5-min Rain = 0
KPD3 100428Z 25007KT 08/03 A3008 RMK A01 T00840031  RH  069%=      5-min Rain = 0
KPD3 100429Z 25007KT 08/03 A3008 RMK A01 T00830030  RH  069%=      5-min Rain = 0
KPD3 100430Z 24007KT 08/03 A3008 RMK A01 T00830030  RH  069%=      5-min Rain = 0
KPD3 100431Z 23006KT 08/03 A3008 RMK A01 T00840030  RH  069%=      5-min Rain = 0
KPD3 100432Z 24007KT 08/03 A3008 RMK A01 T00840029  RH  068%=      5-min Rain = 0
KPD3 100433Z 23006KT 08/03 A3008 RMK A01 T00840029  RH  068%=      5-min Rain = 0
KPD3 100434Z 23006KT 08/03 A3008 RMK A01 T00840029  RH  069%=      5-min Rain = 0
KPD3 100435Z 23006KT 08/03 A3008 RMK A01 T00840029  RH  068%=      5-min Rain = 0
KPD3 100436Z 23006KT 08/03 A3008 RMK A01 T00840028  RH  068%=      5-min Rain = 0
KPD3 100437Z 23006KT 08/03 A3008 RMK A01 T00830028  RH  068%=      5-min Rain = 0
KPD3 100438Z 23006KT 08/03 A3008 RMK A01 T00830029  RH  069%=      5-min Rain = 0
KPD3 100439Z 23006KT 09/03 A3008 RMK A01 T00860031  RH  068%=      5-min Rain = 0
KPD3 100440Z 23006KT 09/03 A3008 RMK A01 T00880030  RH  067%=      5-min Rain = 0
KPD3 100441Z 23007KT 09/03 A3008 RMK A01 T00890030  RH  066%=      5-min Rain = 0
KPD3 100442Z 24008KT 09/03 A3008 RMK A01 T00910031  RH  066%=      5-min Rain = 0
KPD3 100443Z 24008KT 09/03 A3008 RMK A01 T00940031  RH  065%=      5-min Rain = 0
KPD3 100444Z 24008KT 10/03 A3007 RMK A01 T00960032  RH  064%=      5-min Rain = 0
KPD3 100445Z 24007KT 10/03 A3007 RMK A01 T00970030  RH  063%=      5-min Rain = 0
KPD3 100446Z 23007KT 09/03 A3007 RMK A01 T00920027  RH  064%=      5-min Rain = 0
KPD3 100447Z 23008KT 09/03 A3007 RMK A01 T00890027  RH  065%=      5-min Rain = 0
KPD3 100448Z 24008KT 09/03 A3007 RMK A01 T00870028  RH  066%=      5-min Rain = 0
KPD3 100449Z 24008KT 09/03 A3007 RMK A01 T00870029  RH  067%=      5-min Rain = 0
KPD3 100450Z 23008KT 09/03 A3007 RMK A01 T00890031  RH  067%=      5-min Rain = 0
KPD3 100451Z 23008KT 09/03 A3007 RMK A01 T00920032  RH  066%=      5-min Rain = 0
KPD3 100452Z 23008KT 09/03 A3007 RMK A01 T00940033  RH  065%=      5-min Rain = 0
KPD3 100453Z 23008KT 10/03 A3007 RMK A01 T00950032  RH  065%=      5-min Rain = 0
KPD3 100454Z 23008KT 09/03 A3007 RMK A01 T00940032  RH  065%=      5-min Rain = 0
KPD3 100455Z 23007KT 09/03 A3007 RMK A01 T00930031  RH  065%=      5-min Rain = 0
KPD3 100456Z 23007KT 09/03 A3007 RMK A01 T00910031  RH  066%=      5-min Rain = 0
KPD3 100457Z 22007KT 09/03 A3007 RMK A01 T00900031  RH  066%=      5-min Rain = 0
KPD3 100458Z 22006KT 09/03 A3007 RMK A01 T00880029  RH  066%=      5-min Rain = 0
KPD3 100459Z 22006KT 08/03 A3007 RMK A01 T00840026  RH  067%=      5-min Rain = 0
KPD3 100500Z 22005KT 08/03 A3007 RMK A01 T00810026  RH  068%=      5-min Rain = 0
KPD3 100501Z 22005KT 08/03 A3007 RMK A01 T00790027  RH  069%=      5-min Rain = 0
KPD3 100502Z 22005KT 08/03 A3007 RMK A01 T00790028  RH  070%=      5-min Rain = 0
KPD3 100503Z 22004KT 08/03 A3007 RMK A01 T00790029  RH  071%=      5-min Rain = 0
KPD3 100504Z 22004KT 08/03 A3007 RMK A01 T00790029  RH  071%=      5-min Rain = 0
KPD3 100505Z 22004KT 08/03 A3007 RMK A01 T00800030  RH  071%=      5-min Rain = 0
KPD3 100506Z 23004KT 08/03 A3007 RMK A01 T00800030  RH  071%=      5-min Rain = 0
KPD3 100507Z 22004KT 08/03 A3007 RMK A01 T00810031  RH  071%=      5-min Rain = 0
KPD3 100508Z 22004KT 08/03 A3007 RMK A01 T00830031  RH  070%=      5-min Rain = 0
KPD3 100509Z 22005KT 08/03 A3007 RMK A01 T00830031  RH  070%=      5-min Rain = 0
KPD3 100510Z 22005KT 08/03 A3007 RMK A01 T00830030  RH  069%=      5-min Rain = 0
KPD3 100511Z 23006KT 08/03 A3007 RMK A01 T00830031  RH  070%=      5-min Rain = 0
KPD3 100512Z 22005KT 08/03 A3007 RMK A01 T00830031  RH  070%=      5-min Rain = 0
KPD3 100513Z 22006KT 09/03 A3007 RMK A01 T00850032  RH  069%=      5-min Rain = 0
KPD3 100514Z 22006KT 09/03 A3007 RMK A01 T00860032  RH  069%=      5-min Rain = 0
KPD3 100515Z 22006KT 09/03 A3007 RMK A01 T00880032  RH  068%=      5-min Rain = 0
KPD3 100516Z 22006KT 09/03 A3007 RMK A01 T00900033  RH  067%=      5-min Rain = 0
KPD3 100517Z 22005KT 10/03 A3007 RMK A01 T00950034  RH  066%=      5-min Rain = 0
KPD3 100518Z 22005KT 10/04 A3007 RMK A01 T01040038  RH  064%=      5-min Rain = 0
KPD3 100519Z 22004KT 11/04 A3007 RMK A01 T01110038  RH  061%=      5-min Rain = 0
KPD3 100520Z 21005KT 12/04 A3007 RMK A01 T01160039  RH  059%=      5-min Rain = 0
KPD3 100521Z 22005KT 12/04 A3007 RMK A01 T01220040  RH  057%=      5-min Rain = 0
KPD3 100522Z 22005KT 13/04 A3007 RMK A01 T01250039  RH  056%=      5-min Rain = 0
KPD3 100523Z 23005KT 13/04 A3007 RMK A01 T01260039  RH  055%=      5-min Rain = 0
KPD3 100524Z 23005KT 13/04 A3007 RMK A01 T01290040  RH  055%=      5-min Rain = 0
KPD3 100525Z 23005KT 13/04 A3007 RMK A01 T01280040  RH  055%=      5-min Rain = 0
KPD3 100526Z 22006KT 12/04 A3007 RMK A01 T01220036  RH  056%=      5-min Rain = 0
KPD3 100527Z 21005KT 12/04 A3007 RMK A01 T01180036  RH  057%=      5-min Rain = 0
KPD3 100528Z 23004KT 12/04 A3007 RMK A01 T01180036  RH  057%=      5-min Rain = 0
KPD3 100529Z 23005KT 11/03 A3007 RMK A01 T01130032  RH  057%=      5-min Rain = 0
KPD3 100530Z 21004KT 11/03 A3007 RMK A01 T01070031  RH  059%=      5-min Rain = 0
KPD3 100531Z 20003KT 10/03 A3007 RMK A01 T01030030  RH  061%=      5-min Rain = 0
KPD3 100532Z 22003KT 10/03 A3007 RMK A01 T01000030  RH  062%=      5-min Rain = 0
KPD3 100533Z 23004KT 10/03 A3007 RMK A01 T00970029  RH  062%=      5-min Rain = 0
KPD3 100534Z 22004KT 09/03 A3007 RMK A01 T00940029  RH  064%=      5-min Rain = 0
KPD3 100535Z 22003KT 09/03 A3007 RMK A01 T00910028  RH  065%=      5-min Rain = 0
KPD3 100536Z 23003KT 09/03 A3007 RMK A01 T00880028  RH  066%=      5-min Rain = 0
KPD3 100537Z 24003KT 09/03 A3007 RMK A01 T00860029  RH  067%=      5-min Rain = 0
KPD3 100538Z 23003KT 09/03 A3007 RMK A01 T00850029  RH  068%=      5-min Rain = 0
KPD3 100539Z 23004KT 08/03 A3007 RMK A01 T00840030  RH  069%=      5-min Rain = 0
KPD3 100540Z 22004KT 09/03 A3007 RMK A01 T00860032  RH  069%=      5-min Rain = 0
KPD3 100541Z 22004KT 09/03 A3007 RMK A01 T00890031  RH  067%=      5-min Rain = 0
KPD3 100542Z 22004KT 09/03 A3007 RMK A01 T00890030  RH  067%=      5-min Rain = 0
KPD3 100543Z 22004KT 09/03 A3007 RMK A01 T00880030  RH  067%=      5-min Rain = 0
KPD3 100544Z 23004KT 09/03 A3007 RMK A01 T00890033  RH  068%=      5-min Rain = 0
KPD3 100545Z 22005KT 09/03 A3007 RMK A01 T00930033  RH  066%=      5-min Rain = 0
KPD3 100546Z 22005KT 09/03 A3007 RMK A01 T00930031  RH  065%=      5-min Rain = 0
KPD3 100547Z 22005KT 09/03 A3007 RMK A01 T00920031  RH  066%=      5-min Rain = 0
KPD3 100548Z 22005KT 09/03 A3007 RMK A01 T00910030  RH  066%=      5-min Rain = 0
KPD3 100549Z 23005KT 09/03 A3007 RMK A01 T00890030  RH  067%=      5-min Rain = 0
KPD3 100550Z 23005KT 09/03 A3007 RMK A01 T00880031  RH  067%=      5-min Rain = 0
KPD3 100551Z 23005KT 09/03 A3007 RMK A01 T00870031  RH  068%=      5-min Rain = 0
KPD3 100552Z 23004KT 09/03 A3007 RMK A01 T00870032  RH  068%=      5-min Rain = 0
KPD3 100553Z 23004KT 09/03 A3007 RMK A01 T00870031  RH  068%=      5-min Rain = 0
KPD3 100554Z 23004KT 09/03 A3007 RMK A01 T00850031  RH  069%=      5-min Rain = 0
KPD3 100555Z 24004KT 08/03 A3007 RMK A01 T00840034  RH  070%=      5-min Rain = 0
KPD3 100556Z 24003KT 08/03 A3007 RMK A01 T00840034  RH  071%=      5-min Rain = 0
KPD3 100557Z 23003KT 09/04 A3007 RMK A01 T00870037  RH  070%=      5-min Rain = 0
KPD3 100558Z 23003KT 10/04 A3007 RMK A01 T00950040  RH  068%=      5-min Rain = 0
KPD3 100559Z 23003KT 10/04 A3007 RMK A01 T01030041  RH  065%=      5-min Rain = 0

Page generated in 0.0814 seconds.